Time,TemperatureF,DewpointF,PressureIn,WindDirection,WindDirectionDegrees,WindSpeedMPH,WindSpeedGustMPH,Humidity,HourlyPrecipIn,Conditions,Clouds,dailyrainin,SoftwareType,DateUTC
2013-10-04 00:00:00,62.3,59.0,29.97,SW,225,0.0,0.0,89,0.00,,,0.00,WUHU216HW,2013-10-04 04:00:00,
2013-10-04 00:01:00,62.3,59.0,29.97,SW,225,0.0,0.0,89,0.00,,,0.00,WUHU216HW,2013-10-04 04:01:00,
2013-10-04 00:06:00,62.3,59.0,29.97,SW,225,0.0,0.0,89,0.00,,,0.00,WUHU216HW,2013-10-04 04:06:00,
2013-10-04 00:11:00,62.1,58.9,29.97,SW,225,0.0,0.0,89,0.00,,,0.00,WUHU216HW,2013-10-04 04:11:00,
2013-10-04 00:16:00,61.9,58.7,29.97,SW,225,0.0,0.0,89,0.00,,,0.00,WUHU216HW,2013-10-04 04:16:00,
2013-10-04 00:21:00,61.7,58.5,29.97,SW,225,0.0,0.0,89,0.00,,,0.00,WUHU216HW,2013-10-04 04:21:00,
2013-10-04 00:32:00,61.6,58.3,29.97,SW,225,0.0,0.0,89,0.00,,,0.00,WUHU216HW,2013-10-04 04:32:00,
2013-10-04 00:33:00,61.6,58.3,29.97,SW,225,0.0,0.0,89,0.00,,,0.00,WUHU216HW,2013-10-04 04:33:00,
2013-10-04 00:34:00,61.6,58.3,29.97,SW,225,0.0,0.0,89,0.00,,,0.00,WUHU216HW,2013-10-04 04:34:00,
2013-10-04 00:35:00,61.6,58.3,29.97,SE,135,0.0,0.0,89,0.00,,,0.00,WUHU216HW,2013-10-04 04:35:00,
2013-10-04 00:37:00,61.4,58.1,29.97,SE,135,0.0,0.0,89,0.00,,,0.00,WUHU216HW,2013-10-04 04:37:00,
2013-10-04 00:40:00,61.4,58.1,29.96,ESE,113,0.0,0.0,89,0.00,,,0.00,WUHU216HW,2013-10-04 04:40:00,
2013-10-04 00:42:00,61.4,58.1,29.97,ESE,113,0.0,0.0,89,0.00,,,0.00,WUHU216HW,2013-10-04 04:42:00,
2013-10-04 00:44:00,61.4,58.1,29.97,ESE,113,0.0,0.0,89,0.00,,,0.00,WUHU216HW,2013-10-04 04:44:00,
2013-10-04 00:45:00,61.2,58.0,29.97,ESE,113,0.0,0.0,89,0.00,,,0.00,WUHU216HW,2013-10-04 04:45:00,
2013-10-04 00:46:00,61.4,58.1,29.97,ESE,113,0.0,0.0,89,0.00,,,0.00,WUHU216HW,2013-10-04 04:46:00,
2013-10-04 00:47:00,61.4,58.1,29.97,ESE,113,0.0,0.0,89,0.00,,,0.00,WUHU216HW,2013-10-04 04:47:00,
2013-10-04 00:49:00,61.4,58.1,29.97,ESE,113,0.0,0.0,89,0.00,,,0.00,WUHU216HW,2013-10-04 04:49:00,
2013-10-04 00:51:00,61.4,58.1,29.96,ESE,113,0.0,0.0,89,0.00,,,0.00,WUHU216HW,2013-10-04 04:51:00,
2013-10-04 00:52:00,61.4,58.1,29.96,ESE,113,0.0,0.0,89,0.00,,,0.00,WUHU216HW,2013-10-04 04:52:00,
2013-10-04 00:54:00,61.4,58.1,29.96,ESE,113,0.0,0.0,89,0.00,,,0.00,WUHU216HW,2013-10-04 04:54:00,
2013-10-04 00:55:00,61.4,58.1,29.96,ESE,113,0.0,0.0,89,0.00,,,0.00,WUHU216HW,2013-10-04 04:55:00,
2013-10-04 00:56:00,61.4,58.1,29.96,ESE,113,0.0,0.0,89,0.00,,,0.00,WUHU216HW,2013-10-04 04:56:00,
2013-10-04 00:57:00,61.2,58.0,29.96,ESE,113,0.0,0.0,89,0.00,,,0.00,WUHU216HW,2013-10-04 04:57:00,
2013-10-04 00:58:00,61.2,58.0,29.96,ESE,113,0.0,0.0,89,0.00,,,0.00,WUHU216HW,2013-10-04 04:58:00,
2013-10-04 00:59:00,61.2,58.0,29.96,ESE,113,0.0,0.0,89,0.00,,,0.00,WUHU216HW,2013-10-04 04:59:00,
2013-10-04 01:00:00,61.2,58.0,29.96,ESE,113,0.0,0.0,89,0.00,,,0.00,WUHU216HW,2013-10-04 05:00:00,
2013-10-04 01:02:00,61.2,58.3,29.96,ESE,113,0.0,0.0,90,0.00,,,0.00,WUHU216HW,2013-10-04 05:02:00,
2013-10-04 01:03:00,61.2,58.3,29.96,ESE,113,0.0,0.0,90,0.00,,,0.00,WUHU216HW,2013-10-04 05:03:00,
2013-10-04 01:05:00,61.2,58.3,29.96,ESE,113,0.0,0.0,90,0.00,,,0.00,WUHU216HW,2013-10-04 05:05:00,
2013-10-04 01:06:00,61.2,58.3,29.96,ESE,113,0.0,0.0,90,0.00,,,0.00,WUHU216HW,2013-10-04 05:06:00,
2013-10-04 01:08:00,61.2,58.3,29.96,ESE,113,0.0,0.0,90,0.00,,,0.00,WUHU216HW,2013-10-04 05:08:00,
2013-10-04 01:09:00,61.2,58.3,29.96,ESE,113,0.0,0.0,90,0.00,,,0.00,WUHU216HW,2013-10-04 05:09:00,
2013-10-04 01:10:00,61.2,58.3,29.96,ESE,113,0.0,0.0,90,0.00,,,0.00,WUHU216HW,2013-10-04 05:10:00,
2013-10-04 01:13:00,61.2,58.3,29.96,ESE,113,0.0,0.0,90,0.00,,,0.00,WUHU216HW,2013-10-04 05:13:00,
2013-10-04 01:14:00,61.2,58.3,29.96,ESE,113,0.0,0.0,90,0.00,,,0.00,WUHU216HW,2013-10-04 05:14:00,
2013-10-04 01:15:00,61.2,58.3,29.96,ESE,113,0.0,0.0,90,0.00,,,0.00,WUHU216HW,2013-10-04 05:15:00,
2013-10-04 01:19:00,61.0,58.1,29.96,ESE,113,0.0,0.0,90,0.00,,,0.00,WUHU216HW,2013-10-04 05:19:00,
2013-10-04 01:20:00,61.0,58.1,29.96,ESE,113,0.0,0.0,90,0.00,,,0.00,WUHU216HW,2013-10-04 05:20:00,
2013-10-04 01:25:00,60.8,58.0,29.96,ESE,113,0.0,0.0,90,0.00,,,0.00,WUHU216HW,2013-10-04 05:25:00,
2013-10-04 01:26:00,60.8,58.0,29.96,ESE,113,0.0,0.0,90,0.00,,,0.00,WUHU216HW,2013-10-04 05:26:00,
2013-10-04 01:27:00,60.8,58.0,29.96,ESE,113,0.0,0.0,90,0.00,,,0.00,WUHU216HW,2013-10-04 05:27:00,
2013-10-04 01:30:00,60.8,58.0,29.96,ESE,113,0.0,0.0,90,0.00,,,0.00,WUHU216HW,2013-10-04 05:30:00,
2013-10-04 01:31:00,60.8,58.0,29.96,ESE,113,0.0,0.0,90,0.00,,,0.00,WUHU216HW,2013-10-04 05:31:00,
2013-10-04 01:32:00,60.8,58.0,29.96,ESE,113,0.0,0.0,90,0.00,,,0.00,WUHU216HW,2013-10-04 05:32:00,
2013-10-04 01:36:00,60.7,57.8,29.96,ESE,113,0.0,0.0,90,0.00,,,0.00,WUHU216HW,2013-10-04 05:36:00,
2013-10-04 01:37:00,60.7,57.8,29.96,ESE,113,0.0,0.0,90,0.00,,,0.00,WUHU216HW,2013-10-04 05:37:00,
2013-10-04 01:38:00,60.7,57.8,29.96,ESE,113,0.0,0.0,90,0.00,,,0.00,WUHU216HW,2013-10-04 05:38:00,
2013-10-04 01:40:00,60.7,57.8,29.96,ESE,113,0.0,0.0,90,0.00,,,0.00,WUHU216HW,2013-10-04 05:40:00,
2013-10-04 01:41:00,60.5,57.6,29.96,ESE,113,0.0,0.0,90,0.00,,,0.00,WUHU216HW,2013-10-04 05:41:00,
2013-10-04 01:42:00,60.5,57.6,29.96,ESE,113,0.0,0.0,90,0.00,,,0.00,WUHU216HW,2013-10-04 05:42:00,
2013-10-04 01:43:00,60.5,57.6,29.96,ESE,113,0.0,0.0,90,0.00,,,0.00,WUHU216HW,2013-10-04 05:43:00,
2013-10-04 01:44:00,60.5,57.6,29.96,ESE,113,0.0,0.0,90,0.00,,,0.00,WUHU216HW,2013-10-04 05:44:00,
2013-10-04 01:46:00,60.5,57.6,29.96,ESE,113,0.0,0.0,90,0.00,,,0.00,WUHU216HW,2013-10-04 05:46:00,
2013-10-04 01:47:00,60.5,57.6,29.96,ESE,113,0.0,0.0,90,0.00,,,0.00,WUHU216HW,2013-10-04 05:47:00,
2013-10-04 01:48:00,60.5,57.6,29.96,ESE,113,0.0,0.0,90,0.00,,,0.00,WUHU216HW,2013-10-04 05:48:00,
2013-10-04 01:49:00,60.5,57.6,29.96,ESE,113,0.0,0.0,90,0.00,,,0.00,WUHU216HW,2013-10-04 05:49:00,
2013-10-04 01:50:00,60.5,57.6,29.96,ESE,113,0.0,0.0,90,0.00,,,0.00,WUHU216HW,2013-10-04 05:50:00,
2013-10-04 01:52:00,60.5,57.6,29.96,ESE,113,0.0,0.0,90,0.00,,,0.00,WUHU216HW,2013-10-04 05:52:00,
2013-10-04 01:53:00,60.3,57.4,29.97,ESE,113,0.0,0.0,90,0.00,,,0.00,WUHU216HW,2013-10-04 05:53:00,
2013-10-04 01:54:00,60.3,57.4,29.96,ESE,113,0.0,0.0,90,0.00,,,0.00,WUHU216HW,2013-10-04 05:54:00,
2013-10-04 01:55:00,60.3,57.4,29.96,ESE,113,0.0,0.0,90,0.00,,,0.00,WUHU216HW,2013-10-04 05:55:00,
2013-10-04 01:57:00,60.3,57.4,29.96,ESE,113,0.0,0.0,90,0.00,,,0.00,WUHU216HW,2013-10-04 05:57:00,
2013-10-04 01:59:00,60.1,57.2,29.96,ESE,113,0.0,0.0,90,0.00,,,0.00,WUHU216HW,2013-10-04 05:59:00,
2013-10-04 02:00:00,60.1,57.2,29.96,ESE,113,0.0,0.0,90,0.00,,,0.00,WUHU216HW,2013-10-04 06:00:00,
2013-10-04 02:01:00,60.1,57.2,29.96,ESE,113,0.0,0.0,90,0.00,,,0.00,WUHU216HW,2013-10-04 06:01:00,
2013-10-04 02:02:00,60.1,57.2,29.96,ESE,113,0.0,0.0,90,0.00,,,0.00,WUHU216HW,2013-10-04 06:02:00,
2013-10-04 02:03:00,60.1,57.2,29.96,ESE,113,0.0,0.0,90,0.00,,,0.00,WUHU216HW,2013-10-04 06:03:00,
2013-10-04 02:04:00,60.1,57.2,29.96,ESE,113,0.0,0.0,90,0.00,,,0.00,WUHU216HW,2013-10-04 06:04:00,
2013-10-04 02:06:00,60.1,57.2,29.96,ESE,113,0.0,0.0,90,0.00,,,0.00,WUHU216HW,2013-10-04 06:06:00,
2013-10-04 02:07:00,60.1,57.2,29.96,ESE,113,0.0,0.0,90,0.00,,,0.00,WUHU216HW,2013-10-04 06:07:00,
2013-10-04 02:08:00,60.1,57.2,29.96,ESE,113,0.0,0.0,90,0.00,,,0.00,WUHU216HW,2013-10-04 06:08:00,
2013-10-04 02:09:00,60.1,57.2,29.96,ESE,113,0.0,0.0,90,0.00,,,0.00,WUHU216HW,2013-10-04 06:09:00,
2013-10-04 02:10:00,59.9,57.1,29.96,ESE,113,0.0,0.0,90,0.00,,,0.00,WUHU216HW,2013-10-04 06:10:00,
2013-10-04 02:11:00,59.9,57.1,29.96,ESE,113,0.0,0.0,90,0.00,,,0.00,WUHU216HW,2013-10-04 06:11:00,
2013-10-04 02:13:00,59.9,57.1,29.96,ESE,113,0.0,0.0,90,0.00,,,0.00,WUHU216HW,2013-10-04 06:13:00,
2013-10-04 02:14:00,59.9,57.1,29.96,ESE,113,0.0,0.0,90,0.00,,,0.00,WUHU216HW,2013-10-04 06:14:00,
2013-10-04 02:15:00,59.8,56.9,29.96,ESE,113,0.0,0.0,90,0.00,,,0.00,WUHU216HW,2013-10-04 06:15:00,
2013-10-04 02:16:00,59.8,56.9,29.96,ESE,113,0.0,0.0,90,0.00,,,0.00,WUHU216HW,2013-10-04 06:16:00,
2013-10-04 02:18:00,59.8,56.9,29.96,ESE,113,0.0,0.0,90,0.00,,,0.00,WUHU216HW,2013-10-04 06:18:00,
2013-10-04 02:19:00,59.8,56.9,29.96,ESE,113,0.0,0.0,90,0.00,,,0.00,WUHU216HW,2013-10-04 06:19:00,
2013-10-04 02:21:00,59.8,56.9,29.97,ESE,113,0.0,0.0,90,0.00,,,0.00,WUHU216HW,2013-10-04 06:21:00,
2013-10-04 02:22:00,59.6,56.7,29.96,ESE,113,0.0,0.0,90,0.00,,,0.00,WUHU216HW,2013-10-04 06:22:00,
2013-10-04 02:23:00,59.6,56.7,29.96,ESE,113,0.0,0.0,90,0.00,,,0.00,WUHU216HW,2013-10-04 06:23:00,
2013-10-04 02:24:00,59.6,56.7,29.96,ESE,113,0.0,0.0,90,0.00,,,0.00,WUHU216HW,2013-10-04 06:24:00,
2013-10-04 02:26:00,59.6,56.7,29.97,ESE,113,0.0,0.0,90,0.00,,,0.00,WUHU216HW,2013-10-04 06:26:00,
2013-10-04 02:27:00,59.6,56.7,29.96,ESE,113,0.0,0.0,90,0.00,,,0.00,WUHU216HW,2013-10-04 06:27:00,
2013-10-04 02:28:00,59.6,56.7,29.97,ESE,113,0.0,0.0,90,0.00,,,0.00,WUHU216HW,2013-10-04 06:28:00,
2013-10-04 02:29:00,59.6,56.7,29.97,ESE,113,0.0,0.0,90,0.00,,,0.00,WUHU216HW,2013-10-04 06:29:00,
2013-10-04 02:30:00,59.4,56.5,29.97,ESE,113,0.0,0.0,90,0.00,,,0.00,WUHU216HW,2013-10-04 06:30:00,
2013-10-04 02:32:00,59.4,56.5,29.97,ESE,113,0.0,0.0,90,0.00,,,0.00,WUHU216HW,2013-10-04 06:32:00,
2013-10-04 02:33:00,59.4,56.5,29.97,ESE,113,0.0,0.0,90,0.00,,,0.00,WUHU216HW,2013-10-04 06:33:00,
2013-10-04 02:34:00,59.4,56.5,29.96,ESE,113,0.0,0.0,90,0.00,,,0.00,WUHU216HW,2013-10-04 06:34:00,
2013-10-04 02:36:00,59.4,56.5,29.97,ESE,113,0.0,0.0,90,0.00,,,0.00,WUHU216HW,2013-10-04 06:36:00,
2013-10-04 02:38:00,59.4,56.5,29.97,ESE,113,0.0,0.0,90,0.00,,,0.00,WUHU216HW,2013-10-04 06:38:00,
2013-10-04 02:39:00,59.4,56.5,29.97,ESE,113,0.0,0.0,90,0.00,,,0.00,WUHU216HW,2013-10-04 06:39:00,
2013-10-04 02:40:00,59.4,56.8,29.97,ESE,113,0.0,0.0,91,0.00,,,0.00,WUHU216HW,2013-10-04 06:40:00,
2013-10-04 02:41:00,59.4,56.8,29.96,ESE,113,0.0,0.0,91,0.00,,,0.00,WUHU216HW,2013-10-04 06:41:00,
2013-10-04 02:44:00,59.4,56.8,29.96,ESE,113,0.0,0.0,91,0.00,,,0.00,WUHU216HW,2013-10-04 06:44:00,
2013-10-04 02:45:00,59.4,56.8,29.96,ESE,113,0.0,0.0,91,0.00,,,0.00,WUHU216HW,2013-10-04 06:45:00,
2013-10-04 02:46:00,59.4,56.8,29.96,ESE,113,0.0,0.0,91,0.00,,,0.00,WUHU216HW,2013-10-04 06:46:00,
2013-10-04 02:47:00,59.4,56.8,29.96,ESE,113,0.0,0.0,91,0.00,,,0.00,WUHU216HW,2013-10-04 06:47:00,
2013-10-04 02:48:00,59.4,56.5,29.96,ESE,113,0.0,0.0,90,0.00,,,0.00,WUHU216HW,2013-10-04 06:48:00,
2013-10-04 02:50:00,59.4,56.8,29.96,ESE,113,0.0,0.0,91,0.00,,,0.00,WUHU216HW,2013-10-04 06:50:00,
2013-10-04 02:51:00,59.2,56.6,29.96,ESE,113,0.0,0.0,91,0.00,,,0.00,WUHU216HW,2013-10-04 06:51:00,
2013-10-04 02:52:00,59.2,56.6,29.96,ESE,113,0.0,0.0,91,0.00,,,0.00,WUHU216HW,2013-10-04 06:52:00,
2013-10-04 02:53:00,59.2,56.6,29.96,ESE,113,0.0,0.0,91,0.00,,,0.00,WUHU216HW,2013-10-04 06:53:00,
2013-10-04 02:56:00,59.2,56.6,29.97,East,90,0.0,0.0,91,0.00,,,0.00,WUHU216HW,2013-10-04 06:56:00,
2013-10-04 02:57:00,59.2,56.6,29.96,East,90,0.0,0.0,91,0.00,,,0.00,WUHU216HW,2013-10-04 06:57:00,
2013-10-04 02:58:00,59.2,56.6,29.96,East,90,0.0,0.0,91,0.00,,,0.00,WUHU216HW,2013-10-04 06:58:00,
2013-10-04 02:59:00,59.2,56.6,29.96,East,90,0.0,0.0,91,0.00,,,0.00,WUHU216HW,2013-10-04 06:59:00,
2013-10-04 03:01:00,59.2,56.6,29.96,East,90,0.0,0.0,91,0.00,,,0.00,WUHU216HW,2013-10-04 07:01:00,
2013-10-04 03:03:00,59.0,56.4,29.97,East,90,0.0,0.0,91,0.00,,,0.00,WUHU216HW,2013-10-04 07:03:00,
2013-10-04 03:04:00,59.0,56.4,29.96,East,90,0.0,0.0,91,0.00,,,0.00,WUHU216HW,2013-10-04 07:04:00,
2013-10-04 03:06:00,59.2,56.6,29.96,East,90,0.0,0.0,91,0.00,,,0.00,WUHU216HW,2013-10-04 07:06:00,
2013-10-04 03:09:00,59.0,56.4,29.97,East,90,0.0,0.0,91,0.00,,,0.00,WUHU216HW,2013-10-04 07:09:00,
2013-10-04 03:10:00,59.0,56.4,29.96,East,90,0.0,0.0,91,0.00,,,0.00,WUHU216HW,2013-10-04 07:10:00,
2013-10-04 03:12:00,59.0,56.4,29.96,East,90,0.0,0.0,91,0.00,,,0.00,WUHU216HW,2013-10-04 07:12:00,
2013-10-04 03:14:00,59.0,56.4,29.96,East,90,0.2,0.2,91,0.00,,,0.00,WUHU216HW,2013-10-04 07:14:00,
2013-10-04 03:15:00,59.0,56.4,29.96,East,90,0.2,0.2,91,0.00,,,0.00,WUHU216HW,2013-10-04 07:15:00,
2013-10-04 03:18:00,59.0,56.2,29.96,East,90,0.0,0.2,90,0.00,,,0.00,WUHU216HW,2013-10-04 07:18:00,
2013-10-04 03:20:00,59.0,56.2,29.96,East,90,0.0,0.2,90,0.00,,,0.00,WUHU216HW,2013-10-04 07:20:00,
2013-10-04 03:22:00,59.0,56.4,29.96,East,90,0.0,0.2,91,0.00,,,0.00,WUHU216HW,2013-10-04 07:22:00,
2013-10-04 03:24:00,59.0,56.4,29.96,East,90,0.0,0.2,91,0.00,,,0.00,WUHU216HW,2013-10-04 07:24:00,
2013-10-04 03:25:00,59.0,56.4,29.96,East,90,0.0,0.2,91,0.00,,,0.00,WUHU216HW,2013-10-04 07:25:00,
2013-10-04 03:26:00,59.0,56.4,29.96,East,90,0.0,0.0,91,0.00,,,0.00,WUHU216HW,2013-10-04 07:26:00,
2013-10-04 03:27:00,59.0,56.4,29.96,East,90,0.0,0.0,91,0.00,,,0.00,WUHU216HW,2013-10-04 07:27:00,
2013-10-04 03:29:00,59.0,56.4,29.96,East,90,0.0,0.0,91,0.00,,,0.00,WUHU216HW,2013-10-04 07:29:00,
2013-10-04 03:30:00,59.0,56.4,29.96,East,90,0.0,0.0,91,0.00,,,0.00,WUHU216HW,2013-10-04 07:30:00,
2013-10-04 03:31:00,59.0,56.2,29.96,East,90,0.0,0.0,90,0.00,,,0.00,WUHU216HW,2013-10-04 07:31:00,
2013-10-04 03:32:00,59.0,56.2,29.96,East,90,0.0,0.0,90,0.00,,,0.00,WUHU216HW,2013-10-04 07:32:00,
2013-10-04 03:33:00,59.0,56.2,29.96,East,90,0.0,0.0,90,0.00,,,0.00,WUHU216HW,2013-10-04 07:33:00,
2013-10-04 03:34:00,58.9,56.0,29.96,East,90,0.0,0.0,90,0.00,,,0.00,WUHU216HW,2013-10-04 07:34:00,
2013-10-04 03:35:00,58.9,56.0,29.96,East,90,0.0,0.0,90,0.00,,,0.00,WUHU216HW,2013-10-04 07:35:00,
2013-10-04 03:37:00,58.9,56.0,29.96,East,90,0.0,0.0,90,0.00,,,0.00,WUHU216HW,2013-10-04 07:37:00,
2013-10-04 03:39:00,58.9,56.0,29.96,East,90,0.0,0.0,90,0.00,,,0.00,WUHU216HW,2013-10-04 07:39:00,
2013-10-04 03:40:00,58.9,56.0,29.96,East,90,0.0,0.0,90,0.00,,,0.00,WUHU216HW,2013-10-04 07:40:00,
2013-10-04 03:41:00,58.9,56.0,29.96,East,90,0.0,0.0,90,0.00,,,0.00,WUHU216HW,2013-10-04 07:41:00,
2013-10-04 03:42:00,58.7,55.8,29.95,East,90,0.0,0.0,90,0.00,,,0.00,WUHU216HW,2013-10-04 07:42:00,
2013-10-04 03:44:00,58.9,56.0,29.96,East,90,0.0,0.0,90,0.00,,,0.00,WUHU216HW,2013-10-04 07:44:00,
2013-10-04 03:46:00,58.9,56.0,29.96,East,90,0.0,0.0,90,0.00,,,0.00,WUHU216HW,2013-10-04 07:46:00,
2013-10-04 03:47:00,59.0,56.2,29.96,East,90,0.0,0.0,90,0.00,,,0.00,WUHU216HW,2013-10-04 07:47:00,
2013-10-04 03:48:00,58.9,56.0,29.96,East,90,0.0,0.0,90,0.00,,,0.00,WUHU216HW,2013-10-04 07:48:00,
2013-10-04 03:49:00,58.9,56.0,29.96,East,90,0.0,0.0,90,0.00,,,0.00,WUHU216HW,2013-10-04 07:49:00,
2013-10-04 03:52:00,58.9,56.0,29.96,East,90,0.0,0.0,90,0.00,,,0.00,WUHU216HW,2013-10-04 07:52:00,
2013-10-04 03:53:00,58.9,56.0,29.95,East,90,0.0,0.0,90,0.00,,,0.00,WUHU216HW,2013-10-04 07:53:00,
2013-10-04 03:54:00,58.9,56.0,29.96,East,90,0.0,0.0,90,0.00,,,0.00,WUHU216HW,2013-10-04 07:54:00,
2013-10-04 03:55:00,58.7,55.8,29.95,East,90,0.0,0.0,90,0.00,,,0.00,WUHU216HW,2013-10-04 07:55:00,
2013-10-04 03:57:00,58.7,55.8,29.95,East,90,0.0,0.0,90,0.00,,,0.00,WUHU216HW,2013-10-04 07:57:00,
2013-10-04 03:58:00,58.7,56.1,29.95,East,90,0.0,0.0,91,0.00,,,0.00,WUHU216HW,2013-10-04 07:58:00,
2013-10-04 04:00:00,58.7,56.1,29.95,East,90,0.0,0.0,91,0.00,,,0.00,WUHU216HW,2013-10-04 08:00:00,
2013-10-04 04:01:00,58.7,56.1,29.95,East,90,0.0,0.0,91,0.00,,,0.00,WUHU216HW,2013-10-04 08:01:00,
2013-10-04 04:02:00,58.7,56.1,29.95,East,90,0.0,0.0,91,0.00,,,0.00,WUHU216HW,2013-10-04 08:02:00,
2013-10-04 04:03:00,58.7,56.1,29.95,East,90,0.0,0.0,91,0.00,,,0.00,WUHU216HW,2013-10-04 08:03:00,
2013-10-04 04:04:00,58.7,56.1,29.95,East,90,0.0,0.0,91,0.00,,,0.00,WUHU216HW,2013-10-04 08:04:00,
2013-10-04 04:06:00,58.5,55.9,29.95,East,90,0.0,0.0,91,0.00,,,0.00,WUHU216HW,2013-10-04 08:06:00,
2013-10-04 04:07:00,58.7,55.8,29.95,East,90,0.0,0.0,90,0.00,,,0.00,WUHU216HW,2013-10-04 08:07:00,
2013-10-04 04:08:00,58.5,55.9,29.95,East,90,0.0,0.0,91,0.00,,,0.00,WUHU216HW,2013-10-04 08:08:00,
2013-10-04 04:09:00,58.5,55.9,29.95,East,90,0.0,0.0,91,0.00,,,0.00,WUHU216HW,2013-10-04 08:09:00,
2013-10-04 04:10:00,58.5,55.9,29.95,East,90,0.0,0.0,91,0.00,,,0.00,WUHU216HW,2013-10-04 08:10:00,
2013-10-04 04:11:00,58.5,55.9,29.95,East,90,0.0,0.0,91,0.00,,,0.00,WUHU216HW,2013-10-04 08:11:00,
2013-10-04 04:12:00,58.5,55.9,29.95,East,90,0.0,0.0,91,0.00,,,0.00,WUHU216HW,2013-10-04 08:12:00,
2013-10-04 04:13:00,58.5,55.9,29.95,East,90,0.0,0.0,91,0.00,,,0.00,WUHU216HW,2013-10-04 08:13:00,
2013-10-04 04:14:00,58.3,55.7,29.95,East,90,0.0,0.0,91,0.00,,,0.00,WUHU216HW,2013-10-04 08:14:00,
2013-10-04 04:16:00,58.3,55.7,29.96,East,90,0.0,0.0,91,0.00,,,0.00,WUHU216HW,2013-10-04 08:16:00,
2013-10-04 04:17:00,58.3,55.7,29.95,East,90,0.0,0.0,91,0.00,,,0.00,WUHU216HW,2013-10-04 08:17:00,
2013-10-04 04:19:00,58.3,55.7,29.95,East,90,0.0,0.0,91,0.00,,,0.00,WUHU216HW,2013-10-04 08:19:00,
2013-10-04 04:22:00,58.3,55.7,29.95,East,90,0.0,0.0,91,0.00,,,0.00,WUHU216HW,2013-10-04 08:22:00,
2013-10-04 04:23:00,58.3,55.7,29.96,East,90,0.0,0.0,91,0.00,,,0.00,WUHU216HW,2013-10-04 08:23:00,
2013-10-04 04:24:00,58.3,55.7,29.95,East,90,0.0,0.0,91,0.00,,,0.00,WUHU216HW,2013-10-04 08:24:00,
2013-10-04 04:25:00,58.3,55.7,29.95,East,90,0.0,0.0,91,0.00,,,0.00,WUHU216HW,2013-10-04 08:25:00,
2013-10-04 04:27:00,58.3,55.7,29.95,East,90,0.0,0.0,91,0.00,,,0.00,WUHU216HW,2013-10-04 08:27:00,
2013-10-04 04:29:00,58.3,55.7,29.95,East,90,0.0,0.0,91,0.00,,,0.00,WUHU216HW,2013-10-04 08:29:00,
2013-10-04 04:30:00,58.3,55.7,29.95,East,90,0.0,0.0,91,0.00,,,0.00,WUHU216HW,2013-10-04 08:30:00,
2013-10-04 04:32:00,58.3,55.7,29.95,East,90,0.0,0.0,91,0.00,,,0.00,WUHU216HW,2013-10-04 08:32:00,
2013-10-04 04:33:00,58.3,55.7,29.95,East,90,0.0,0.0,91,0.00,,,0.00,WUHU216HW,2013-10-04 08:33:00,
2013-10-04 04:34:00,58.3,55.7,29.95,East,90,0.0,0.0,91,0.00,,,0.00,WUHU216HW,2013-10-04 08:34:00,
2013-10-04 04:35:00,58.3,55.7,29.95,East,90,0.0,0.0,91,0.00,,,0.00,WUHU216HW,2013-10-04 08:35:00,
2013-10-04 04:36:00,58.3,55.7,29.95,East,90,0.0,0.0,91,0.00,,,0.00,WUHU216HW,2013-10-04 08:36:00,
2013-10-04 04:37:00,58.1,55.5,29.95,East,90,0.0,0.0,91,0.00,,,0.00,WUHU216HW,2013-10-04 08:37:00,
2013-10-04 04:39:00,58.1,55.5,29.95,East,90,0.0,0.0,91,0.00,,,0.00,WUHU216HW,2013-10-04 08:39:00,
2013-10-04 04:41:00,58.3,55.7,29.95,East,90,0.0,0.0,91,0.00,,,0.00,WUHU216HW,2013-10-04 08:41:00,
2013-10-04 04:42:00,58.3,55.7,29.95,East,90,0.0,0.0,91,0.00,,,0.00,WUHU216HW,2013-10-04 08:42:00,
2013-10-04 04:43:00,58.3,55.7,29.95,East,90,0.0,0.0,91,0.00,,,0.00,WUHU216HW,2013-10-04 08:43:00,
2013-10-04 04:44:00,58.3,55.7,29.95,East,90,0.0,0.0,91,0.00,,,0.00,WUHU216HW,2013-10-04 08:44:00,
2013-10-04 04:46:00,58.3,55.7,29.95,East,90,0.0,0.0,91,0.00,,,0.00,WUHU216HW,2013-10-04 08:46:00,
2013-10-04 04:47:00,58.3,55.7,29.95,East,90,0.0,0.0,91,0.00,,,0.00,WUHU216HW,2013-10-04 08:47:00,
2013-10-04 04:48:00,58.3,55.7,29.95,East,90,0.0,0.0,91,0.00,,,0.00,WUHU216HW,2013-10-04 08:48:00,
2013-10-04 04:49:00,58.3,55.7,29.95,East,90,0.0,0.0,91,0.00,,,0.00,WUHU216HW,2013-10-04 08:49:00,
2013-10-04 04:51:00,58.3,55.7,29.96,East,90,0.0,0.0,91,0.00,,,0.00,WUHU216HW,2013-10-04 08:51:00,
2013-10-04 04:53:00,58.3,55.7,29.96,East,90,0.0,0.0,91,0.00,,,0.00,WUHU216HW,2013-10-04 08:53:00,
2013-10-04 04:54:00,58.3,55.7,29.96,East,90,0.0,0.0,91,0.00,,,0.00,WUHU216HW,2013-10-04 08:54:00,
2013-10-04 04:55:00,58.3,55.7,29.96,East,90,0.0,0.0,91,0.00,,,0.00,WUHU216HW,2013-10-04 08:55:00,
2013-10-04 04:57:00,58.3,55.7,29.96,East,90,0.0,0.0,91,0.00,,,0.00,WUHU216HW,2013-10-04 08:57:00,
2013-10-04 04:58:00,58.3,55.7,29.96,East,90,0.0,0.0,91,0.00,,,0.00,WUHU216HW,2013-10-04 08:58:00,
2013-10-04 04:59:00,58.1,55.5,29.96,East,90,0.0,0.0,91,0.00,,,0.00,WUHU216HW,2013-10-04 08:59:00,
2013-10-04 05:01:00,58.1,55.5,29.96,East,90,0.0,0.0,91,0.00,,,0.00,WUHU216HW,2013-10-04 09:01:00,
2013-10-04 05:02:00,58.1,55.5,29.96,East,90,0.0,0.0,91,0.00,,,0.00,WUHU216HW,2013-10-04 09:02:00,
2013-10-04 05:03:00,58.1,55.5,29.96,East,90,0.0,0.0,91,0.00,,,0.00,WUHU216HW,2013-10-04 09:03:00,
2013-10-04 05:04:00,58.1,55.5,29.96,East,90,0.0,0.0,91,0.00,,,0.00,WUHU216HW,2013-10-04 09:04:00,
2013-10-04 05:06:00,58.1,55.5,29.96,East,90,0.0,0.0,91,0.00,,,0.00,WUHU216HW,2013-10-04 09:06:00,
2013-10-04 05:07:00,58.1,55.5,29.96,East,90,0.0,0.0,91,0.00,,,0.00,WUHU216HW,2013-10-04 09:07:00,
2013-10-04 05:08:00,58.0,55.4,29.96,East,90,0.0,0.0,91,0.00,,,0.00,WUHU216HW,2013-10-04 09:08:00,
2013-10-04 05:09:00,58.0,55.4,29.96,East,90,0.0,0.0,91,0.00,,,0.00,WUHU216HW,2013-10-04 09:09:00,
2013-10-04 05:12:00,58.0,55.4,29.96,East,90,0.0,0.0,91,0.00,,,0.00,WUHU216HW,2013-10-04 09:12:00,
2013-10-04 05:13:00,58.0,55.4,29.96,East,90,0.0,0.0,91,0.00,,,0.00,WUHU216HW,2013-10-04 09:13:00,
2013-10-04 05:14:00,58.0,55.4,29.96,East,90,0.0,0.0,91,0.00,,,0.00,WUHU216HW,2013-10-04 09:14:00,
2013-10-04 05:16:00,58.0,55.4,29.96,East,90,0.0,0.0,91,0.00,,,0.00,WUHU216HW,2013-10-04 09:16:00,
2013-10-04 05:18:00,58.0,55.4,29.96,East,90,0.3,0.4,91,0.00,,,0.00,WUHU216HW,2013-10-04 09:18:00,
2013-10-04 05:19:00,57.8,55.2,29.96,East,90,0.0,0.4,91,0.00,,,0.00,WUHU216HW,2013-10-04 09:19:00,
2013-10-04 05:20:00,57.8,55.2,29.96,East,90,0.0,0.4,91,0.00,,,0.00,WUHU216HW,2013-10-04 09:20:00,
2013-10-04 05:21:00,57.8,55.2,29.96,East,90,0.0,0.4,91,0.00,,,0.00,WUHU216HW,2013-10-04 09:21:00,
2013-10-04 05:22:00,57.8,55.2,29.96,East,90,0.0,0.4,91,0.00,,,0.00,WUHU216HW,2013-10-04 09:22:00,
2013-10-04 05:24:00,57.8,55.2,29.95,East,90,0.0,0.4,91,0.00,,,0.00,WUHU216HW,2013-10-04 09:24:00,
2013-10-04 05:25:00,58.0,55.4,29.95,East,90,0.0,0.4,91,0.00,,,0.00,WUHU216HW,2013-10-04 09:25:00,
2013-10-04 05:28:00,57.8,55.2,29.95,East,90,0.0,0.0,91,0.00,,,0.00,WUHU216HW,2013-10-04 09:28:00,
2013-10-04 05:29:00,57.8,55.2,29.96,East,90,0.0,0.0,91,0.00,,,0.00,WUHU216HW,2013-10-04 09:29:00,
2013-10-04 05:30:00,57.8,55.2,29.96,East,90,0.0,0.0,91,0.00,,,0.00,WUHU216HW,2013-10-04 09:30:00,
2013-10-04 05:31:00,57.8,55.2,29.95,East,90,0.0,0.0,91,0.00,,,0.00,WUHU216HW,2013-10-04 09:31:00,
2013-10-04 05:34:00,57.8,55.2,29.96,East,90,0.0,0.0,91,0.00,,,0.00,WUHU216HW,2013-10-04 09:34:00,
2013-10-04 05:35:00,57.8,55.2,29.96,East,90,0.0,0.0,91,0.00,,,0.00,WUHU216HW,2013-10-04 09:35:00,
2013-10-04 05:36:00,57.8,55.2,29.96,East,90,0.0,0.0,91,0.00,,,0.00,WUHU216HW,2013-10-04 09:36:00,
2013-10-04 05:37:00,57.8,55.2,29.96,East,90,0.0,0.0,91,0.00,,,0.00,WUHU216HW,2013-10-04 09:37:00,
2013-10-04 05:39:00,58.0,55.4,29.96,East,90,0.0,0.0,91,0.00,,,0.00,WUHU216HW,2013-10-04 09:39:00,
2013-10-04 05:40:00,57.8,55.2,29.96,East,90,0.0,0.0,91,0.00,,,0.00,WUHU216HW,2013-10-04 09:40:00,
2013-10-04 05:41:00,58.0,55.4,29.96,East,90,0.0,0.0,91,0.00,,,0.00,WUHU216HW,2013-10-04 09:41:00,
2013-10-04 05:42:00,58.0,55.4,29.96,East,90,0.0,0.0,91,0.00,,,0.00,WUHU216HW,2013-10-04 09:42:00,
2013-10-04 05:44:00,57.8,55.2,29.96,East,90,0.0,0.0,91,0.00,,,0.00,WUHU216HW,2013-10-04 09:44:00,
2013-10-04 05:45:00,58.0,55.4,29.96,East,90,0.0,0.0,91,0.00,,,0.00,WUHU216HW,2013-10-04 09:45:00,
2013-10-04 05:47:00,57.8,55.2,29.96,East,90,0.0,0.0,91,0.00,,,0.00,WUHU216HW,2013-10-04 09:47:00,
2013-10-04 05:48:00,57.8,55.2,29.96,East,90,0.0,0.0,91,0.00,,,0.00,WUHU216HW,2013-10-04 09:48:00,
2013-10-04 05:49:00,57.8,55.2,29.96,East,90,0.0,0.0,91,0.00,,,0.00,WUHU216HW,2013-10-04 09:49:00,
2013-10-04 05:50:00,57.6,55.0,29.96,East,90,0.0,0.0,91,0.00,,,0.00,WUHU216HW,2013-10-04 09:50:00,
2013-10-04 05:52:00,57.6,55.0,29.97,East,90,0.0,0.0,91,0.00,,,0.00,WUHU216HW,2013-10-04 09:52:00,
2013-10-04 05:53:00,57.6,55.0,29.96,East,90,0.0,0.0,91,0.00,,,0.00,WUHU216HW,2013-10-04 09:53:00,
2013-10-04 05:54:00,57.6,55.0,29.97,East,90,0.0,0.0,91,0.00,,,0.00,WUHU216HW,2013-10-04 09:54:00,
2013-10-04 05:55:00,57.6,55.0,29.97,East,90,0.0,0.0,91,0.00,,,0.00,WUHU216HW,2013-10-04 09:55:00,
2013-10-04 05:57:00,57.6,55.0,29.97,East,90,0.0,0.0,91,0.00,,,0.00,WUHU216HW,2013-10-04 09:57:00,
2013-10-04 05:58:00,57.6,55.0,29.97,East,90,0.0,0.0,91,0.00,,,0.00,WUHU216HW,2013-10-04 09:58:00,
2013-10-04 05:59:00,57.6,55.0,29.97,East,90,0.0,0.0,91,0.00,,,0.00,WUHU216HW,2013-10-04 09:59:00,
2013-10-04 06:01:00,57.6,55.0,29.97,East,90,0.0,0.0,91,0.00,,,0.00,WUHU216HW,2013-10-04 10:01:00,
2013-10-04 06:02:00,57.6,55.0,29.97,East,90,0.0,0.0,91,0.00,,,0.00,WUHU216HW,2013-10-04 10:02:00,
2013-10-04 06:04:00,57.6,55.0,29.97,East,90,0.0,0.0,91,0.00,,,0.00,WUHU216HW,2013-10-04 10:04:00,
2013-10-04 06:05:00,57.6,55.0,29.97,East,90,0.0,0.0,91,0.00,,,0.00,WUHU216HW,2013-10-04 10:05:00,
2013-10-04 06:06:00,57.6,55.0,29.97,East,90,0.0,0.0,91,0.00,,,0.00,WUHU216HW,2013-10-04 10:06:00,
2013-10-04 06:09:00,57.6,55.0,29.97,East,90,0.0,0.0,91,0.00,,,0.00,WUHU216HW,2013-10-04 10:09:00,
2013-10-04 06:11:00,57.6,55.0,29.97,East,90,0.0,0.0,91,0.00,,,0.00,WUHU216HW,2013-10-04 10:11:00,
2013-10-04 06:12:00,57.6,55.0,29.97,East,90,0.0,0.0,91,0.00,,,0.00,WUHU216HW,2013-10-04 10:12:00,
2013-10-04 06:14:00,57.6,55.0,29.97,East,90,0.0,0.0,91,0.00,,,0.00,WUHU216HW,2013-10-04 10:14:00,
2013-10-04 06:15:00,57.6,55.0,29.97,East,90,0.0,0.0,91,0.00,,,0.00,WUHU216HW,2013-10-04 10:15:00,
2013-10-04 06:17:00,57.6,55.0,29.97,East,90,0.0,0.0,91,0.00,,,0.00,WUHU216HW,2013-10-04 10:17:00,
2013-10-04 06:18:00,57.6,55.3,29.97,East,90,0.0,0.0,92,0.00,,,0.00,WUHU216HW,2013-10-04 10:18:00,
2013-10-04 06:19:00,57.6,55.0,29.97,East,90,0.0,0.0,91,0.00,,,0.00,WUHU216HW,2013-10-04 10:19:00,
2013-10-04 06:21:00,57.8,55.2,29.97,East,90,0.0,0.0,91,0.00,,,0.00,WUHU216HW,2013-10-04 10:21:00,
2013-10-04 06:22:00,57.8,55.4,29.97,East,90,0.0,0.0,92,0.00,,,0.00,WUHU216HW,2013-10-04 10:22:00,
2013-10-04 06:23:00,57.8,55.2,29.97,East,90,0.0,0.0,91,0.00,,,0.00,WUHU216HW,2013-10-04 10:23:00,
2013-10-04 06:24:00,57.8,55.2,29.97,East,90,0.0,0.0,91,0.00,,,0.00,WUHU216HW,2013-10-04 10:24:00,
2013-10-04 06:27:00,58.0,55.4,29.97,East,90,0.0,0.0,91,0.00,,,0.00,WUHU216HW,2013-10-04 10:27:00,
2013-10-04 06:28:00,58.0,55.4,29.97,East,90,0.0,0.0,91,0.00,,,0.00,WUHU216HW,2013-10-04 10:28:00,
2013-10-04 06:29:00,58.0,55.4,29.97,East,90,0.0,0.0,91,0.00,,,0.00,WUHU216HW,2013-10-04 10:29:00,
2013-10-04 06:30:00,58.0,55.4,29.97,East,90,0.0,0.0,91,0.00,,,0.00,WUHU216HW,2013-10-04 10:30:00,
2013-10-04 06:33:00,58.0,55.4,29.97,East,90,0.0,0.0,91,0.00,,,0.00,WUHU216HW,2013-10-04 10:33:00,
2013-10-04 06:35:00,58.0,55.4,29.97,East,90,0.0,0.0,91,0.00,,,0.00,WUHU216HW,2013-10-04 10:35:00,
2013-10-04 06:36:00,58.0,55.4,29.97,East,90,0.0,0.0,91,0.00,,,0.00,WUHU216HW,2013-10-04 10:36:00,
2013-10-04 06:38:00,57.8,55.2,29.97,East,90,0.0,0.0,91,0.00,,,0.00,WUHU216HW,2013-10-04 10:38:00,
2013-10-04 06:39:00,57.8,55.2,29.97,East,90,0.0,0.0,91,0.00,,,0.00,WUHU216HW,2013-10-04 10:39:00,
2013-10-04 06:40:00,57.8,55.4,29.97,East,90,0.0,0.0,92,0.00,,,0.00,WUHU216HW,2013-10-04 10:40:00,
2013-10-04 06:41:00,57.8,55.4,29.97,East,90,0.0,0.0,92,0.00,,,0.00,WUHU216HW,2013-10-04 10:41:00,
2013-10-04 06:42:00,57.8,55.4,29.97,East,90,0.0,0.0,92,0.00,,,0.00,WUHU216HW,2013-10-04 10:42:00,
2013-10-04 06:45:00,57.8,55.4,29.97,East,90,0.0,0.0,92,0.00,,,0.00,WUHU216HW,2013-10-04 10:45:00,
2013-10-04 06:46:00,57.8,55.4,29.97,East,90,0.0,0.0,92,0.00,,,0.00,WUHU216HW,2013-10-04 10:46:00,
2013-10-04 06:47:00,57.8,55.4,29.97,East,90,0.0,0.0,92,0.00,,,0.00,WUHU216HW,2013-10-04 10:47:00,
2013-10-04 06:48:00,57.8,55.2,29.97,East,90,0.0,0.0,91,0.00,,,0.00,WUHU216HW,2013-10-04 10:48:00,
2013-10-04 06:50:00,58.0,55.6,29.97,East,90,0.0,0.0,92,0.00,,,0.00,WUHU216HW,2013-10-04 10:50:00,
2013-10-04 06:51:00,58.0,55.4,29.97,East,90,0.0,0.0,91,0.00,,,0.00,WUHU216HW,2013-10-04 10:51:00,
2013-10-04 06:53:00,58.0,55.4,29.97,East,90,0.0,0.0,91,0.00,,,0.00,WUHU216HW,2013-10-04 10:53:00,
2013-10-04 06:54:00,58.0,55.6,29.97,East,90,0.0,0.0,92,0.00,,,0.00,WUHU216HW,2013-10-04 10:54:00,
2013-10-04 06:55:00,58.0,55.6,29.97,East,90,0.0,0.0,92,0.00,,,0.00,WUHU216HW,2013-10-04 10:55:00,
2013-10-04 06:57:00,58.0,55.6,29.97,East,90,0.0,0.0,92,0.00,,,0.00,WUHU216HW,2013-10-04 10:57:00,
2013-10-04 06:58:00,58.1,55.8,29.97,East,90,0.0,0.0,92,0.00,,,0.00,WUHU216HW,2013-10-04 10:58:00,
2013-10-04 06:59:00,58.1,55.8,29.97,East,90,0.0,0.0,92,0.00,,,0.00,WUHU216HW,2013-10-04 10:59:00,
2013-10-04 07:01:00,58.1,55.8,29.97,East,90,0.0,0.0,92,0.00,,,0.00,WUHU216HW,2013-10-04 11:01:00,
2013-10-04 07:03:00,58.3,56.0,29.97,East,90,0.0,0.0,92,0.00,,,0.00,WUHU216HW,2013-10-04 11:03:00,
2013-10-04 07:04:00,58.3,56.0,29.97,East,90,0.0,0.0,92,0.00,,,0.00,WUHU216HW,2013-10-04 11:04:00,
2013-10-04 07:05:00,58.3,56.0,29.97,East,90,0.0,0.0,92,0.00,,,0.00,WUHU216HW,2013-10-04 11:05:00,
2013-10-04 07:06:00,58.3,56.0,29.97,East,90,0.0,0.0,92,0.00,,,0.00,WUHU216HW,2013-10-04 11:06:00,
2013-10-04 07:08:00,58.5,56.2,29.97,NNW,338,0.0,0.0,92,0.00,,,0.00,WUHU216HW,2013-10-04 11:08:00,
2013-10-04 07:09:00,58.5,56.2,29.97,NNW,338,0.0,0.0,92,0.00,,,0.00,WUHU216HW,2013-10-04 11:09:00,
2013-10-04 07:11:00,58.7,56.1,29.98,NNW,338,0.0,0.0,91,0.00,,,0.00,WUHU216HW,2013-10-04 11:11:00,
2013-10-04 07:12:00,58.7,56.3,29.98,NNW,338,0.0,0.0,92,0.00,,,0.00,WUHU216HW,2013-10-04 11:12:00,
2013-10-04 07:13:00,58.7,56.3,29.97,NNW,338,0.0,0.0,92,0.00,,,0.00,WUHU216HW,2013-10-04 11:13:00,
2013-10-04 07:14:00,58.7,56.1,29.97,NNW,338,0.0,0.0,91,0.00,,,0.00,WUHU216HW,2013-10-04 11:14:00,
2013-10-04 07:17:00,58.7,56.3,29.97,NNW,338,0.0,0.0,92,0.00,,,0.00,WUHU216HW,2013-10-04 11:17:00,
2013-10-04 07:19:00,58.9,56.5,29.98,NNW,338,0.0,0.0,92,0.00,,,0.00,WUHU216HW,2013-10-04 11:19:00,
2013-10-04 07:20:00,58.9,56.5,29.98,NNW,338,0.0,0.0,92,0.00,,,0.00,WUHU216HW,2013-10-04 11:20:00,
2013-10-04 07:24:00,59.0,57.1,29.98,NNW,338,0.0,0.0,93,0.00,,,0.00,WUHU216HW,2013-10-04 11:24:00,
2013-10-04 07:25:00,59.0,57.1,29.98,NNW,338,0.0,0.0,93,0.00,,,0.00,WUHU216HW,2013-10-04 11:25:00,
2013-10-04 07:29:00,59.0,57.1,29.98,NNW,338,0.0,0.0,93,0.00,,,0.00,WUHU216HW,2013-10-04 11:29:00,
2013-10-04 07:30:00,59.0,57.1,29.98,NNW,338,0.0,0.0,93,0.00,,,0.00,WUHU216HW,2013-10-04 11:30:00,
2013-10-04 07:31:00,59.2,56.9,29.98,NNW,338,0.0,0.0,92,0.00,,,0.00,WUHU216HW,2013-10-04 11:31:00,
2013-10-04 07:32:00,59.0,57.1,29.98,NNW,338,0.0,0.0,93,0.00,,,0.00,WUHU216HW,2013-10-04 11:32:00,
2013-10-04 07:35:00,59.2,57.3,29.98,NNW,338,0.0,0.0,93,0.00,,,0.00,WUHU216HW,2013-10-04 11:35:00,
2013-10-04 07:37:00,59.2,57.3,29.98,NNW,338,0.0,0.0,93,0.00,,,0.00,WUHU216HW,2013-10-04 11:37:00,
2013-10-04 07:40:00,59.2,57.3,29.98,NNW,338,0.0,0.0,93,0.00,,,0.00,WUHU216HW,2013-10-04 11:40:00,
2013-10-04 07:41:00,59.2,57.3,29.98,NNW,338,0.0,0.0,93,0.00,,,0.00,WUHU216HW,2013-10-04 11:41:00,
2013-10-04 07:42:00,59.2,56.9,29.98,NNW,338,0.0,0.0,92,0.00,,,0.00,WUHU216HW,2013-10-04 11:42:00,
2013-10-04 07:43:00,59.2,57.3,29.98,NNW,338,0.0,0.0,93,0.00,,,0.00,WUHU216HW,2013-10-04 11:43:00,
2013-10-04 07:45:00,59.4,57.4,29.98,NNW,338,0.0,0.0,93,0.00,,,0.00,WUHU216HW,2013-10-04 11:45:00,
2013-10-04 07:47:00,59.4,57.4,29.98,NNW,338,0.0,0.0,93,0.00,,,0.00,WUHU216HW,2013-10-04 11:47:00,
2013-10-04 07:48:00,59.4,57.4,29.98,NNW,338,0.0,0.0,93,0.00,,,0.00,WUHU216HW,2013-10-04 11:48:00,
2013-10-04 07:49:00,59.4,57.4,29.98,NNW,338,0.0,0.0,93,0.00,,,0.00,WUHU216HW,2013-10-04 11:49:00,
2013-10-04 07:50:00,59.6,57.6,29.98,NNW,338,0.0,0.0,93,0.00,,,0.00,WUHU216HW,2013-10-04 11:50:00,
2013-10-04 07:51:00,59.6,57.6,29.98,NNW,338,0.0,0.0,93,0.00,,,0.00,WUHU216HW,2013-10-04 11:51:00,
2013-10-04 07:52:00,59.6,57.6,29.99,NNW,338,0.0,0.0,93,0.00,,,0.00,WUHU216HW,2013-10-04 11:52:00,
2013-10-04 07:53:00,59.6,57.6,29.99,NNW,338,0.0,0.0,93,0.00,,,0.00,WUHU216HW,2013-10-04 11:53:00,
2013-10-04 07:54:00,59.6,57.6,29.99,NW,315,0.0,0.0,93,0.00,,,0.00,WUHU216HW,2013-10-04 11:54:00,
2013-10-04 07:55:00,59.8,57.8,29.99,NW,315,0.4,0.4,93,0.00,,,0.00,WUHU216HW,2013-10-04 11:55:00,
2013-10-04 07:57:00,59.8,57.8,29.99,NW,315,0.4,0.4,93,0.00,,,0.00,WUHU216HW,2013-10-04 11:57:00,
2013-10-04 07:58:00,59.8,57.8,29.99,NW,315,0.4,0.4,93,0.00,,,0.00,WUHU216HW,2013-10-04 11:58:00,
2013-10-04 08:00:00,59.9,57.6,29.99,NW,315,0.0,0.4,92,0.00,,,0.00,WUHU216HW,2013-10-04 12:00:00,
2013-10-04 08:02:00,59.9,58.0,29.99,NW,315,0.0,0.4,93,0.00,,,0.00,WUHU216HW,2013-10-04 12:02:00,
2013-10-04 08:03:00,59.9,58.0,29.99,NW,315,0.0,0.4,93,0.00,,,0.00,WUHU216HW,2013-10-04 12:03:00,
2013-10-04 08:04:00,59.9,57.6,29.99,NW,315,0.0,0.4,92,0.00,,,0.00,WUHU216HW,2013-10-04 12:04:00,
2013-10-04 08:05:00,60.1,58.2,29.99,NW,315,0.0,0.4,93,0.00,,,0.00,WUHU216HW,2013-10-04 12:05:00,
2013-10-04 08:07:00,60.1,57.8,29.99,NW,315,0.0,0.0,92,0.00,,,0.00,WUHU216HW,2013-10-04 12:07:00,
2013-10-04 08:09:00,60.1,57.8,29.99,NW,315,0.0,0.0,92,0.00,,,0.00,WUHU216HW,2013-10-04 12:09:00,
2013-10-04 08:10:00,60.3,58.0,29.99,NNW,338,0.0,0.0,92,0.00,,,0.00,WUHU216HW,2013-10-04 12:10:00,
2013-10-04 08:11:00,60.3,58.3,29.99,NNW,338,0.0,0.0,93,0.00,,,0.00,WUHU216HW,2013-10-04 12:11:00,
2013-10-04 08:12:00,60.3,58.0,29.99,NNW,338,0.0,0.0,92,0.00,,,0.00,WUHU216HW,2013-10-04 12:12:00,
2013-10-04 08:13:00,60.5,58.1,29.99,NNE,23,0.4,0.4,92,0.00,,,0.00,WUHU216HW,2013-10-04 12:13:00,
2013-10-04 08:14:00,60.5,58.1,29.99,East,90,0.7,0.7,92,0.00,,,0.00,WUHU216HW,2013-10-04 12:14:00,
2013-10-04 08:15:00,60.7,58.3,29.99,East,90,0.6,0.7,92,0.00,,,0.00,WUHU216HW,2013-10-04 12:15:00,
2013-10-04 08:16:00,60.7,58.3,29.99,East,90,0.5,0.7,92,0.00,,,0.00,WUHU216HW,2013-10-04 12:16:00,
2013-10-04 08:17:00,60.8,58.5,29.99,East,90,0.2,0.7,92,0.00,,,0.00,WUHU216HW,2013-10-04 12:17:00,
2013-10-04 08:18:00,60.8,58.5,29.99,East,90,0.0,0.7,92,0.00,,,0.00,WUHU216HW,2013-10-04 12:18:00,
2013-10-04 08:19:00,60.8,58.5,29.99,East,90,0.0,0.7,92,0.00,,,0.00,WUHU216HW,2013-10-04 12:19:00,
2013-10-04 08:20:00,61.0,58.7,29.99,East,90,0.0,0.7,92,0.00,,,0.00,WUHU216HW,2013-10-04 12:20:00,
2013-10-04 08:21:00,61.2,58.9,29.99,East,90,0.0,0.7,92,0.00,,,0.00,WUHU216HW,2013-10-04 12:21:00,
2013-10-04 08:23:00,61.4,59.0,29.99,East,90,0.4,0.7,92,0.00,,,0.00,WUHU216HW,2013-10-04 12:23:00,
2013-10-04 08:25:00,61.6,59.2,29.99,East,90,0.3,0.4,92,0.00,,,0.00,WUHU216HW,2013-10-04 12:25:00,
2013-10-04 08:26:00,61.6,59.2,29.99,ENE,68,0.0,0.4,92,0.00,,,0.00,WUHU216HW,2013-10-04 12:26:00,
2013-10-04 08:27:00,61.6,59.2,29.99,ENE,68,0.0,0.4,92,0.00,,,0.00,WUHU216HW,2013-10-04 12:27:00,
2013-10-04 08:28:00,61.6,59.2,29.99,NNE,23,0.0,0.4,92,0.00,,,0.00,WUHU216HW,2013-10-04 12:28:00,
2013-10-04 08:30:00,61.7,59.4,29.99,NNE,23,0.0,0.4,92,0.00,,,0.00,WUHU216HW,2013-10-04 12:30:00,
2013-10-04 08:32:00,61.7,59.4,29.99,NNE,23,0.0,0.4,92,0.00,,,0.00,WUHU216HW,2013-10-04 12:32:00,
2013-10-04 08:33:00,61.9,59.6,29.99,NNE,23,0.0,0.4,92,0.00,,,0.00,WUHU216HW,2013-10-04 12:33:00,
2013-10-04 08:34:00,61.9,59.6,30.00,NNE,23,0.0,0.0,92,0.00,,,0.00,WUHU216HW,2013-10-04 12:34:00,
2013-10-04 08:36:00,62.1,59.8,29.99,NNE,23,0.4,0.4,92,0.00,,,0.00,WUHU216HW,2013-10-04 12:36:00,
2013-10-04 08:38:00,62.1,59.8,30.00,North,0,1.1,1.1,92,0.00,,,0.00,WUHU216HW,2013-10-04 12:38:00,
2013-10-04 08:39:00,62.1,59.8,30.00,North,0,0.6,1.1,92,0.00,,,0.00,WUHU216HW,2013-10-04 12:39:00,
2013-10-04 08:40:00,62.1,59.8,30.00,NE,45,0.9,1.1,92,0.00,,,0.00,WUHU216HW,2013-10-04 12:40:00,
2013-10-04 08:42:00,62.1,59.8,30.00,NE,43,0.8,1.1,92,0.00,,,0.00,WUHU216HW,2013-10-04 12:42:00,
2013-10-04 08:43:00,62.1,59.8,30.00,East,90,1.1,1.1,92,0.00,,,0.00,WUHU216HW,2013-10-04 12:43:00,
2013-10-04 08:44:00,62.1,59.8,30.00,East,90,1.1,1.3,92,0.00,,,0.00,WUHU216HW,2013-10-04 12:44:00,
2013-10-04 08:45:00,62.3,59.9,30.00,East,90,0.9,1.3,92,0.00,,,0.00,WUHU216HW,2013-10-04 12:45:00,
2013-10-04 08:46:00,62.3,59.9,30.00,East,90,0.6,1.3,92,0.00,,,0.00,WUHU216HW,2013-10-04 12:46:00,
2013-10-04 08:47:00,62.3,59.9,30.00,East,90,0.4,1.3,92,0.00,,,0.00,WUHU216HW,2013-10-04 12:47:00,
2013-10-04 08:49:00,62.5,60.1,30.00,East,90,0.0,1.3,92,0.00,,,0.00,WUHU216HW,2013-10-04 12:49:00,
2013-10-04 08:50:00,62.5,60.1,30.00,East,90,0.0,1.3,92,0.00,,,0.00,WUHU216HW,2013-10-04 12:50:00,
2013-10-04 08:51:00,62.6,60.3,30.00,East,90,0.0,1.3,92,0.00,,,0.00,WUHU216HW,2013-10-04 12:51:00,
2013-10-04 08:52:00,62.6,60.3,30.00,ENE,68,0.0,1.3,92,0.00,,,0.00,WUHU216HW,2013-10-04 12:52:00,
2013-10-04 08:54:00,62.8,60.5,30.00,ENE,68,0.0,0.4,92,0.00,,,0.00,WUHU216HW,2013-10-04 12:54:00,
2013-10-04 08:55:00,63.0,60.7,30.00,ENE,68,0.0,0.4,92,0.00,,,0.00,WUHU216HW,2013-10-04 12:55:00,
2013-10-04 08:56:00,63.0,60.7,30.00,ENE,68,0.0,0.4,92,0.00,,,0.00,WUHU216HW,2013-10-04 12:56:00,
2013-10-04 08:59:00,63.4,61.0,30.00,ENE,68,0.0,0.0,92,0.00,,,0.00,WUHU216HW,2013-10-04 12:59:00,
2013-10-04 09:00:00,63.5,61.2,30.01,ENE,68,0.0,0.0,92,0.00,,,0.00,WUHU216HW,2013-10-04 13:00:00,
2013-10-04 09:01:00,63.4,61.0,30.01,ENE,68,0.0,0.0,92,0.00,,,0.00,WUHU216HW,2013-10-04 13:01:00,
2013-10-04 09:03:00,63.5,61.2,30.01,ENE,68,0.0,0.0,92,0.00,,,0.00,WUHU216HW,2013-10-04 13:03:00,
2013-10-04 09:04:00,63.7,61.4,30.01,ENE,68,0.0,0.0,92,0.00,,,0.00,WUHU216HW,2013-10-04 13:04:00,
2013-10-04 09:05:00,63.7,61.4,30.01,ENE,68,0.0,0.0,92,0.00,,,0.00,WUHU216HW,2013-10-04 13:05:00,
2013-10-04 09:06:00,63.7,61.4,30.00,ENE,68,0.0,0.0,92,0.00,,,0.00,WUHU216HW,2013-10-04 13:06:00,
2013-10-04 09:07:00,63.7,61.4,30.01,NE,45,0.0,0.0,92,0.00,,,0.00,WUHU216HW,2013-10-04 13:07:00,
2013-10-04 09:08:00,63.7,61.4,30.01,NNW,338,0.0,0.0,92,0.00,,,0.00,WUHU216HW,2013-10-04 13:08:00,
2013-10-04 09:09:00,63.9,61.6,30.01,NNW,338,0.0,0.0,92,0.00,,,0.00,WUHU216HW,2013-10-04 13:09:00,
2013-10-04 09:11:00,64.1,61.7,30.01,NNW,338,0.0,0.0,92,0.00,,,0.00,WUHU216HW,2013-10-04 13:11:00,
2013-10-04 09:12:00,64.3,61.9,30.01,NNW,338,0.0,0.0,92,0.00,,,0.00,WUHU216HW,2013-10-04 13:12:00,
2013-10-04 09:14:00,64.4,61.8,30.01,WSW,248,0.4,0.4,91,0.00,,,0.00,WUHU216HW,2013-10-04 13:14:00,
2013-10-04 09:15:00,64.4,61.8,30.01,WSW,248,0.9,0.9,91,0.00,,,0.00,WUHU216HW,2013-10-04 13:15:00,
2013-10-04 09:17:00,64.4,61.8,30.01,WSW,248,0.8,0.9,91,0.00,,,0.00,WUHU216HW,2013-10-04 13:17:00,
2013-10-04 09:18:00,64.4,61.8,30.01,WSW,248,0.0,0.9,91,0.00,,,0.00,WUHU216HW,2013-10-04 13:18:00,
2013-10-04 09:19:00,64.6,62.0,30.01,WSW,248,0.0,0.9,91,0.00,,,0.00,WUHU216HW,2013-10-04 13:19:00,
2013-10-04 09:20:00,64.6,62.0,30.01,WSW,248,0.2,0.9,91,0.00,,,0.00,WUHU216HW,2013-10-04 13:20:00,
2013-10-04 09:21:00,64.6,62.0,30.01,WSW,248,0.4,0.9,91,0.00,,,0.00,WUHU216HW,2013-10-04 13:21:00,
2013-10-04 09:23:00,64.8,62.2,30.01,WSW,248,0.4,0.9,91,0.00,,,0.00,WUHU216HW,2013-10-04 13:23:00,
2013-10-04 09:24:00,64.8,62.2,30.01,WSW,248,0.0,0.9,91,0.00,,,0.00,WUHU216HW,2013-10-04 13:24:00,
2013-10-04 09:25:00,65.0,62.4,30.01,WSW,248,0.0,0.9,91,0.00,,,0.00,WUHU216HW,2013-10-04 13:25:00,
2013-10-04 09:26:00,65.0,62.4,30.01,WSW,248,0.0,0.9,91,0.00,,,0.00,WUHU216HW,2013-10-04 13:26:00,
2013-10-04 09:28:00,65.2,62.5,30.01,WSW,248,0.0,0.7,91,0.00,,,0.00,WUHU216HW,2013-10-04 13:28:00,
2013-10-04 09:29:00,65.2,62.5,30.01,WSW,248,0.0,0.7,91,0.00,,,0.00,WUHU216HW,2013-10-04 13:29:00,
2013-10-04 09:31:00,65.3,62.6,30.01,West,270,0.2,0.4,91,0.00,,,0.00,WUHU216HW,2013-10-04 13:31:00,
2013-10-04 09:32:00,65.5,62.6,30.01,WSW,248,0.7,0.7,90,0.00,,,0.00,WUHU216HW,2013-10-04 13:32:00,
2013-10-04 09:34:00,65.7,62.7,30.01,WSW,248,0.7,1.1,90,0.00,,,0.00,WUHU216HW,2013-10-04 13:34:00,
2013-10-04 09:35:00,65.7,63.0,30.01,WSW,248,0.5,1.1,91,0.00,,,0.00,WUHU216HW,2013-10-04 13:35:00,
2013-10-04 09:37:00,65.9,63.2,30.01,WSW,248,0.0,1.1,91,0.00,,,0.00,WUHU216HW,2013-10-04 13:37:00,
2013-10-04 09:38:00,66.1,63.4,30.02,WSW,248,0.0,1.1,91,0.00,,,0.00,WUHU216HW,2013-10-04 13:38:00,
2013-10-04 09:39:00,66.1,63.4,30.01,WSW,248,0.0,1.1,91,0.00,,,0.00,WUHU216HW,2013-10-04 13:39:00,
2013-10-04 09:40:00,66.2,63.5,30.02,NW,315,0.0,1.1,91,0.00,,,0.00,WUHU216HW,2013-10-04 13:40:00,
2013-10-04 09:42:00,66.2,63.5,30.02,NW,315,0.0,1.1,91,0.00,,,0.00,WUHU216HW,2013-10-04 13:42:00,
2013-10-04 09:43:00,66.4,63.6,30.02,NW,315,0.0,1.1,91,0.00,,,0.00,WUHU216HW,2013-10-04 13:43:00,
2013-10-04 09:44:00,66.6,63.8,30.02,NW,315,0.0,0.4,91,0.00,,,0.00,WUHU216HW,2013-10-04 13:44:00,
2013-10-04 09:45:00,66.6,63.8,30.02,NW,315,0.0,0.0,91,0.00,,,0.00,WUHU216HW,2013-10-04 13:45:00,
2013-10-04 09:48:00,67.0,64.2,30.02,NW,315,0.0,0.0,91,0.00,,,0.00,WUHU216HW,2013-10-04 13:48:00,
2013-10-04 09:49:00,67.1,64.1,30.02,NW,315,0.0,0.0,90,0.00,,,0.00,WUHU216HW,2013-10-04 13:49:00,
2013-10-04 09:50:00,67.3,64.3,30.02,NW,315,0.0,0.0,90,0.00,,,0.00,WUHU216HW,2013-10-04 13:50:00,
2013-10-04 09:53:00,67.5,64.4,30.02,NW,315,0.0,0.0,90,0.00,,,0.00,WUHU216HW,2013-10-04 13:53:00,
2013-10-04 09:55:00,67.7,64.6,30.02,North,0,0.0,0.0,90,0.00,,,0.00,WUHU216HW,2013-10-04 13:55:00,
2013-10-04 09:56:00,67.7,64.6,30.02,North,0,0.0,0.0,90,0.00,,,0.00,WUHU216HW,2013-10-04 13:56:00,
2013-10-04 09:57:00,67.9,64.4,30.02,North,0,0.0,0.0,89,0.00,,,0.00,WUHU216HW,2013-10-04 13:57:00,
2013-10-04 09:59:00,68.0,64.6,30.02,North,0,0.0,0.0,89,0.00,,,0.00,WUHU216HW,2013-10-04 13:59:00,
2013-10-04 10:00:00,68.2,64.8,30.02,North,0,0.2,0.2,89,0.00,,,0.00,WUHU216HW,2013-10-04 14:00:00,
2013-10-04 10:01:00,68.2,64.8,30.02,North,0,0.2,0.2,89,0.00,,,0.00,WUHU216HW,2013-10-04 14:01:00,
2013-10-04 10:02:00,68.2,64.8,30.02,North,0,0.2,0.2,89,0.00,,,0.00,WUHU216HW,2013-10-04 14:02:00,
2013-10-04 10:03:00,68.6,65.2,30.02,North,0,0.0,0.2,89,0.00,,,0.00,WUHU216HW,2013-10-04 14:03:00,
2013-10-04 10:04:00,68.8,65.3,30.02,North,0,0.0,0.2,89,0.00,,,0.00,WUHU216HW,2013-10-04 14:04:00,
2013-10-04 10:06:00,68.8,65.1,30.02,North,0,0.0,0.2,88,0.00,,,0.00,WUHU216HW,2013-10-04 14:06:00,
2013-10-04 10:07:00,68.9,65.3,30.02,North,0,0.0,0.2,88,0.00,,,0.00,WUHU216HW,2013-10-04 14:07:00,
2013-10-04 10:08:00,68.9,65.3,30.02,North,0,0.0,0.2,88,0.00,,,0.00,WUHU216HW,2013-10-04 14:08:00,
2013-10-04 10:11:00,69.5,65.7,30.02,North,0,0.0,0.0,88,0.00,,,0.00,WUHU216HW,2013-10-04 14:11:00,
2013-10-04 10:12:00,69.7,65.9,30.02,ENE,68,0.2,0.2,88,0.00,,,0.00,WUHU216HW,2013-10-04 14:12:00,
2013-10-04 10:13:00,69.7,65.9,30.02,NE,56,0.2,0.2,88,0.00,,,0.00,WUHU216HW,2013-10-04 14:13:00,
2013-10-04 10:14:00,69.8,66.1,30.02,NE,56,0.2,0.2,88,0.00,,,0.00,WUHU216HW,2013-10-04 14:14:00,
2013-10-04 10:15:00,69.8,66.1,30.02,ENE,68,0.0,0.2,88,0.00,,,0.00,WUHU216HW,2013-10-04 14:15:00,
2013-10-04 10:17:00,70.2,66.2,30.02,NE,45,0.0,0.2,87,0.00,,,0.00,WUHU216HW,2013-10-04 14:17:00,
2013-10-04 10:19:00,70.6,66.5,30.02,NW,315,0.0,0.2,87,0.00,,,0.00,WUHU216HW,2013-10-04 14:19:00,
2013-10-04 10:20:00,70.6,66.2,30.02,WNW,293,0.0,0.2,86,0.00,,,0.00,WUHU216HW,2013-10-04 14:20:00,
2013-10-04 10:21:00,70.7,66.3,30.02,WNW,293,0.0,0.2,86,0.00,,,0.00,WUHU216HW,2013-10-04 14:21:00,
2013-10-04 10:22:00,70.7,66.3,30.02,WNW,293,0.0,0.2,86,0.00,,,0.00,WUHU216HW,2013-10-04 14:22:00,
2013-10-04 10:24:00,70.9,66.5,30.02,WNW,293,0.0,0.0,86,0.00,,,0.00,WUHU216HW,2013-10-04 14:24:00,
2013-10-04 10:25:00,71.1,66.7,30.02,WNW,293,0.0,0.0,86,0.00,,,0.00,WUHU216HW,2013-10-04 14:25:00,
2013-10-04 10:26:00,71.1,66.7,30.02,WSW,248,0.0,0.0,86,0.00,,,0.00,WUHU216HW,2013-10-04 14:26:00,
2013-10-04 10:28:00,71.3,66.5,30.02,West,270,0.0,0.0,85,0.00,,,0.00,WUHU216HW,2013-10-04 14:28:00,
2013-10-04 10:29:00,71.3,66.5,30.02,West,270,0.0,0.0,85,0.00,,,0.00,WUHU216HW,2013-10-04 14:29:00,
2013-10-04 10:30:00,71.3,66.5,30.02,West,270,0.0,0.0,85,0.00,,,0.00,WUHU216HW,2013-10-04 14:30:00,
2013-10-04 10:31:00,71.5,66.7,30.02,West,270,0.2,0.2,85,0.00,,,0.00,WUHU216HW,2013-10-04 14:31:00,
2013-10-04 10:32:00,71.3,66.5,30.02,WSW,248,1.1,1.1,85,0.00,,,0.00,WUHU216HW,2013-10-04 14:32:00,
2013-10-04 10:33:00,71.5,66.7,30.02,WSW,240,0.9,1.1,85,0.00,,,0.00,WUHU216HW,2013-10-04 14:33:00,
2013-10-04 10:35:00,71.6,66.5,30.02,SW,225,0.0,1.1,84,0.00,,,0.00,WUHU216HW,2013-10-04 14:35:00,
2013-10-04 10:36:00,71.6,66.5,30.02,SW,225,0.0,1.1,84,0.00,,,0.00,WUHU216HW,2013-10-04 14:36:00,
2013-10-04 10:38:00,71.6,66.5,30.02,WSW,248,0.7,1.1,84,0.00,,,0.00,WUHU216HW,2013-10-04 14:38:00,
2013-10-04 10:39:00,71.6,66.5,30.02,West,270,0.9,1.1,84,0.00,,,0.00,WUHU216HW,2013-10-04 14:39:00,
2013-10-04 10:41:00,71.8,66.7,30.02,West,270,0.5,1.1,84,0.00,,,0.00,WUHU216HW,2013-10-04 14:41:00,
2013-10-04 10:42:00,71.8,66.7,30.02,ENE,68,0.4,1.1,84,0.00,,,0.00,WUHU216HW,2013-10-04 14:42:00,
2013-10-04 10:44:00,72.0,66.9,30.02,ESE,102,0.6,1.1,84,0.00,,,0.00,WUHU216HW,2013-10-04 14:44:00,
2013-10-04 10:45:00,72.2,67.1,30.03,ESE,113,1.1,1.1,84,0.00,,,0.00,WUHU216HW,2013-10-04 14:45:00,
2013-10-04 10:46:00,72.4,67.2,30.02,West,270,1.1,1.1,84,0.00,,,0.00,WUHU216HW,2013-10-04 14:46:00,
2013-10-04 10:48:00,72.4,67.2,30.02,West,265,1.0,1.1,84,0.00,,,0.00,WUHU216HW,2013-10-04 14:48:00,
2013-10-04 10:50:00,72.7,67.2,30.02,West,270,0.4,1.1,83,0.00,,,0.00,WUHU216HW,2013-10-04 14:50:00,
2013-10-04 10:51:00,72.7,67.2,30.02,West,270,0.4,1.1,83,0.00,,,0.00,WUHU216HW,2013-10-04 14:51:00,
2013-10-04 10:52:00,72.7,67.2,30.02,West,270,0.4,1.1,83,0.00,,,0.00,WUHU216HW,2013-10-04 14:52:00,
2013-10-04 10:53:00,72.7,67.2,30.02,West,270,0.3,1.1,83,0.00,,,0.00,WUHU216HW,2013-10-04 14:53:00,
2013-10-04 10:54:00,73.1,68.0,30.02,West,270,0.0,1.1,84,0.00,,,0.00,WUHU216HW,2013-10-04 14:54:00,
2013-10-04 10:56:00,73.3,68.1,30.02,NNW,338,0.4,1.1,84,0.00,,,0.00,WUHU216HW,2013-10-04 14:56:00,
2013-10-04 10:57:00,73.3,68.1,30.02,NNW,338,0.4,0.4,84,0.00,,,0.00,WUHU216HW,2013-10-04 14:57:00,
2013-10-04 10:58:00,73.4,68.0,30.02,WNW,293,0.7,0.7,83,0.00,,,0.00,WUHU216HW,2013-10-04 14:58:00,
2013-10-04 11:00:00,73.6,68.1,30.02,WNW,293,0.4,0.7,83,0.00,,,0.00,WUHU216HW,2013-10-04 15:00:00,
2013-10-04 11:01:00,73.6,68.1,30.02,NW,315,0.0,0.7,83,0.00,,,0.00,WUHU216HW,2013-10-04 15:01:00,
2013-10-04 11:03:00,73.8,68.1,30.02,NNW,338,0.4,0.7,82,0.00,,,0.00,WUHU216HW,2013-10-04 15:03:00,
2013-10-04 11:04:00,73.8,68.1,30.02,NNW,338,0.4,0.7,82,0.00,,,0.00,WUHU216HW,2013-10-04 15:04:00,
2013-10-04 11:05:00,74.0,68.2,30.02,North,0,0.9,0.9,82,0.00,,,0.00,WUHU216HW,2013-10-04 15:05:00,
2013-10-04 11:07:00,74.2,68.4,30.02,North,0,0.5,0.9,82,0.00,,,0.00,WUHU216HW,2013-10-04 15:07:00,
2013-10-04 11:09:00,74.2,68.1,30.02,NNE,23,0.4,0.9,81,0.00,,,0.00,WUHU216HW,2013-10-04 15:09:00,
2013-10-04 11:10:00,74.2,68.1,30.02,NNE,17,0.6,1.1,81,0.00,,,0.00,WUHU216HW,2013-10-04 15:10:00,
2013-10-04 11:12:00,74.5,68.4,30.02,ENE,68,0.7,1.1,81,0.00,,,0.00,WUHU216HW,2013-10-04 15:12:00,
2013-10-04 11:13:00,74.5,68.4,30.02,ENE,64,0.5,1.1,81,0.00,,,0.00,WUHU216HW,2013-10-04 15:13:00,
2013-10-04 11:14:00,74.7,68.6,30.02,ENE,68,0.5,1.1,81,0.00,,,0.00,WUHU216HW,2013-10-04 15:14:00,
2013-10-04 11:15:00,74.9,68.8,30.02,ENE,68,0.4,1.1,81,0.00,,,0.00,WUHU216HW,2013-10-04 15:15:00,
2013-10-04 11:16:00,74.9,68.8,30.02,ENE,68,0.3,1.1,81,0.00,,,0.00,WUHU216HW,2013-10-04 15:16:00,
2013-10-04 11:17:00,74.9,68.8,30.02,West,270,0.4,1.1,81,0.00,,,0.00,WUHU216HW,2013-10-04 15:17:00,
2013-10-04 11:18:00,75.2,69.1,30.02,West,264,0.8,1.1,81,0.00,,,0.00,WUHU216HW,2013-10-04 15:18:00,
2013-10-04 11:19:00,75.4,69.3,30.02,West,270,1.3,1.3,81,0.00,,,0.00,WUHU216HW,2013-10-04 15:19:00,
2013-10-04 11:21:00,75.6,69.4,30.02,SSW,208,1.3,2.2,81,0.00,,,0.00,WUHU216HW,2013-10-04 15:21:00,
2013-10-04 11:23:00,76.0,69.4,30.02,NNE,23,0.4,2.2,80,0.00,,,0.00,WUHU216HW,2013-10-04 15:23:00,
2013-10-04 11:24:00,76.1,69.6,30.02,NNE,23,0.4,2.2,80,0.00,,,0.00,WUHU216HW,2013-10-04 15:24:00,
2013-10-04 11:25:00,76.3,69.4,30.02,SE,135,0.9,2.2,79,0.00,,,0.00,WUHU216HW,2013-10-04 15:25:00,
2013-10-04 11:26:00,76.5,69.5,30.02,NE,45,1.1,2.2,79,0.00,,,0.00,WUHU216HW,2013-10-04 15:26:00,
2013-10-04 11:52:00,79.0,68.8,30.02,WNW,293,0.4,0.4,71,0.00,,,0.00,WUHU216HW,2013-10-04 15:52:00,
2013-10-04 11:53:00,79.2,68.9,30.02,SSW,203,2.5,4.0,71,0.00,,,0.00,WUHU216HW,2013-10-04 15:53:00,
2013-10-04 11:54:00,79.2,68.9,30.02,SSW,212,2.4,4.0,71,0.00,,,0.00,WUHU216HW,2013-10-04 15:54:00,
2013-10-04 11:57:00,79.2,68.6,30.02,SE,135,2.0,4.0,70,0.00,,,0.00,WUHU216HW,2013-10-04 15:57:00,
2013-10-04 11:59:00,79.2,68.9,30.02,SE,141,0.9,4.0,71,0.00,,,0.00,WUHU216HW,2013-10-04 15:59:00,
2013-10-04 12:00:00,79.4,68.8,30.02,East,90,1.1,4.0,70,0.00,,,0.00,WUHU216HW,2013-10-04 16:00:00,
2013-10-04 12:02:00,79.6,68.5,30.02,West,270,1.6,4.0,69,0.00,,,0.00,WUHU216HW,2013-10-04 16:02:00,
2013-10-04 12:05:00,79.6,68.5,30.02,South,170,0.5,2.7,69,0.00,,,0.00,WUHU216HW,2013-10-04 16:05:00,
2013-10-04 12:06:00,79.7,68.7,30.02,ESE,113,1.8,2.7,69,0.00,,,0.00,WUHU216HW,2013-10-04 16:06:00,
2013-10-04 12:08:00,79.9,68.9,30.02,SE,135,2.5,2.9,69,0.00,,,0.00,WUHU216HW,2013-10-04 16:08:00,
2013-10-04 12:10:00,80.1,69.0,30.02,SSW,193,3.0,4.5,69,0.00,,,0.00,WUHU216HW,2013-10-04 16:10:00,
2013-10-04 12:11:00,80.1,68.6,30.02,South,175,2.5,4.5,68,0.00,,,0.00,WUHU216HW,2013-10-04 16:11:00,
2013-10-04 12:13:00,80.3,68.8,30.02,SSE,158,1.1,4.5,68,0.00,,,0.00,WUHU216HW,2013-10-04 16:13:00,
2013-10-04 12:15:00,80.3,68.3,30.02,South,180,3.1,4.5,67,0.00,,,0.00,WUHU216HW,2013-10-04 16:15:00,
2013-10-04 12:16:00,80.3,68.3,30.02,South,186,2.1,4.5,67,0.00,,,0.00,WUHU216HW,2013-10-04 16:16:00,
2013-10-04 12:18:00,80.3,67.9,30.02,SE,135,4.0,4.5,66,0.00,,,0.00,WUHU216HW,2013-10-04 16:18:00,
2013-10-04 12:19:00,80.3,67.9,30.02,SE,140,2.7,4.0,66,0.00,,,0.00,WUHU216HW,2013-10-04 16:19:00,
2013-10-04 12:21:00,80.3,67.9,30.02,ESE,113,4.0,4.0,66,0.00,,,0.00,WUHU216HW,2013-10-04 16:21:00,
2013-10-04 12:23:00,80.1,67.2,30.02,SSW,203,2.0,4.0,65,0.00,,,0.00,WUHU216HW,2013-10-04 16:23:00,
2013-10-04 12:25:00,79.9,67.5,30.02,SSE,147,2.8,4.0,66,0.00,,,0.00,WUHU216HW,2013-10-04 16:25:00,
2013-10-04 12:26:00,79.9,67.5,30.02,ESE,122,1.8,4.0,66,0.00,,,0.00,WUHU216HW,2013-10-04 16:26:00,
2013-10-04 12:27:00,79.9,67.5,30.01,SSW,203,3.8,4.0,66,0.00,,,0.00,WUHU216HW,2013-10-04 16:27:00,
2013-10-04 12:28:00,79.9,67.5,30.02,SSW,210,2.9,4.0,66,0.00,,,0.00,WUHU216HW,2013-10-04 16:28:00,
2013-10-04 12:30:00,80.1,67.7,30.01,ESE,113,2.0,4.0,66,0.00,,,0.00,WUHU216HW,2013-10-04 16:30:00,
2013-10-04 12:31:00,80.1,67.7,30.02,SSE,158,2.5,3.8,66,0.00,,,0.00,WUHU216HW,2013-10-04 16:31:00,
2013-10-04 12:33:00,80.3,67.9,30.02,South,171,1.1,3.8,66,0.00,,,0.00,WUHU216HW,2013-10-04 16:33:00,
2013-10-04 12:34:00,80.3,67.9,30.02,SSW,203,2.5,3.8,66,0.00,,,0.00,WUHU216HW,2013-10-04 16:34:00,
2013-10-04 12:36:00,80.5,67.6,30.02,ESE,113,2.2,3.8,65,0.00,,,0.00,WUHU216HW,2013-10-04 16:36:00,
2013-10-04 12:37:00,80.5,67.1,30.02,South,180,2.7,2.7,64,0.00,,,0.00,WUHU216HW,2013-10-04 16:37:00,
2013-10-04 12:39:00,80.5,67.6,30.02,SSE,159,2.0,2.7,65,0.00,,,0.00,WUHU216HW,2013-10-04 16:39:00,
2013-10-04 12:40:00,80.6,67.8,30.02,SE,135,2.5,2.7,65,0.00,,,0.00,WUHU216HW,2013-10-04 16:40:00,
2013-10-04 12:41:00,80.6,67.8,30.01,ESE,113,0.9,2.7,65,0.00,,,0.00,WUHU216HW,2013-10-04 16:41:00,
2013-10-04 12:43:00,80.6,67.8,30.01,South,180,1.1,2.7,65,0.00,,,0.00,WUHU216HW,2013-10-04 16:43:00,
2013-10-04 12:44:00,80.6,68.2,30.01,SSW,203,1.8,2.7,66,0.00,,,0.00,WUHU216HW,2013-10-04 16:44:00,
2013-10-04 12:45:00,80.8,68.4,30.01,SSW,203,1.8,2.7,66,0.00,,,0.00,WUHU216HW,2013-10-04 16:45:00,
2013-10-04 12:46:00,80.8,68.4,30.01,ESE,113,1.1,2.7,66,0.00,,,0.00,WUHU216HW,2013-10-04 16:46:00,
2013-10-04 12:47:00,81.0,68.6,30.01,ESE,113,0.8,2.7,66,0.00,,,0.00,WUHU216HW,2013-10-04 16:47:00,
2013-10-04 12:49:00,81.2,68.2,30.01,SW,225,3.4,3.4,65,0.00,,,0.00,WUHU216HW,2013-10-04 16:49:00,
2013-10-04 12:51:00,81.4,68.4,30.01,South,176,2.5,3.4,65,0.00,,,0.00,WUHU216HW,2013-10-04 16:51:00,
2013-10-04 12:53:00,81.4,68.4,30.01,WSW,237,1.7,3.4,65,0.00,,,0.00,WUHU216HW,2013-10-04 16:53:00,
2013-10-04 12:54:00,81.4,68.4,30.01,SW,233,1.3,3.4,65,0.00,,,0.00,WUHU216HW,2013-10-04 16:54:00,
2013-10-04 12:55:00,81.5,68.6,30.01,SSE,158,1.3,3.4,65,0.00,,,0.00,WUHU216HW,2013-10-04 16:55:00,
2013-10-04 12:57:00,81.7,68.8,30.01,SE,135,3.1,3.4,65,0.00,,,0.00,WUHU216HW,2013-10-04 16:57:00,
2013-10-04 12:58:00,81.7,68.3,30.01,ESE,117,2.7,3.4,64,0.00,,,0.00,WUHU216HW,2013-10-04 16:58:00,
2013-10-04 12:59:00,81.7,68.3,30.01,SE,135,3.8,3.8,64,0.00,,,0.00,WUHU216HW,2013-10-04 16:59:00,
2013-10-04 13:01:00,81.7,68.3,30.01,SE,135,2.2,3.8,64,0.00,,,0.00,WUHU216HW,2013-10-04 17:01:00,
2013-10-04 13:03:00,81.7,68.3,30.01,SSE,162,1.3,3.8,64,0.00,,,0.00,WUHU216HW,2013-10-04 17:03:00,
2013-10-04 13:04:00,81.9,68.5,30.01,East,90,1.8,3.8,64,0.00,,,0.00,WUHU216HW,2013-10-04 17:04:00,
2013-10-04 13:07:00,81.7,67.0,30.01,ESE,113,3.4,3.8,61,0.00,,,0.00,WUHU216HW,2013-10-04 17:07:00,
2013-10-04 13:08:00,81.7,67.0,30.01,ESE,102,3.3,3.8,61,0.00,,,0.00,WUHU216HW,2013-10-04 17:08:00,
2013-10-04 13:09:00,81.5,67.2,30.01,ESE,113,1.6,3.4,62,0.00,,,0.00,WUHU216HW,2013-10-04 17:09:00,
2013-10-04 13:11:00,81.4,66.6,30.00,East,90,3.4,3.4,61,0.00,,,0.00,WUHU216HW,2013-10-04 17:11:00,
2013-10-04 13:12:00,81.4,66.6,30.00,East,90,3.4,3.4,61,0.00,,,0.00,WUHU216HW,2013-10-04 17:12:00,
2013-10-04 13:13:00,81.4,66.6,30.00,South,180,3.4,3.4,61,0.00,,,0.00,WUHU216HW,2013-10-04 17:13:00,
2013-10-04 13:14:00,81.2,66.9,30.00,SSE,158,3.4,3.4,62,0.00,,,0.00,WUHU216HW,2013-10-04 17:14:00,
2013-10-04 13:15:00,81.4,67.5,30.00,South,187,1.3,3.4,63,0.00,,,0.00,WUHU216HW,2013-10-04 17:15:00,
2013-10-04 13:17:00,81.4,67.5,30.00,SW,225,3.6,3.6,63,0.00,,,0.00,WUHU216HW,2013-10-04 17:17:00,
2013-10-04 13:18:00,81.7,67.9,30.00,SW,225,2.3,3.6,63,0.00,,,0.00,WUHU216HW,2013-10-04 17:18:00,
2013-10-04 13:19:00,81.9,68.1,30.00,NE,45,0.6,3.6,63,0.00,,,0.00,WUHU216HW,2013-10-04 17:19:00,
2013-10-04 13:21:00,82.1,68.1,30.00,SE,127,3.1,4.0,63,0.00,,,0.00,WUHU216HW,2013-10-04 17:21:00,
2013-10-04 13:24:00,82.4,68.0,30.00,SSE,158,2.0,4.0,62,0.00,,,0.00,WUHU216HW,2013-10-04 17:24:00,
2013-10-04 13:25:00,82.6,68.2,30.00,SE,135,3.1,4.0,62,0.00,,,0.00,WUHU216HW,2013-10-04 17:25:00,
2013-10-04 13:27:00,82.8,68.0,30.00,SE,135,2.7,4.0,61,0.00,,,0.00,WUHU216HW,2013-10-04 17:27:00,
2013-10-04 13:29:00,83.0,68.6,30.00,East,100,1.3,4.0,62,0.00,,,0.00,WUHU216HW,2013-10-04 17:29:00,
2013-10-04 13:30:00,83.2,68.8,30.00,SE,135,0.9,3.4,62,0.00,,,0.00,WUHU216HW,2013-10-04 17:30:00,
2013-10-04 13:31:00,83.2,68.8,30.00,SSE,158,2.0,3.4,62,0.00,,,0.00,WUHU216HW,2013-10-04 17:31:00,
2013-10-04 13:32:00,83.2,68.8,30.00,SSE,158,2.0,3.4,62,0.00,,,0.00,WUHU216HW,2013-10-04 17:32:00,
2013-10-04 13:35:00,83.7,68.9,30.00,North,0,1.1,3.4,61,0.00,,,0.00,WUHU216HW,2013-10-04 17:35:00,
2013-10-04 13:36:00,83.7,68.9,30.00,East,90,1.8,2.0,61,0.00,,,0.00,WUHU216HW,2013-10-04 17:36:00,
2013-10-04 13:38:00,83.5,68.7,29.99,SE,135,1.1,2.0,61,0.00,,,0.00,WUHU216HW,2013-10-04 17:38:00,
2013-10-04 13:58:00,84.6,67.7,29.99,SE,135,1.6,5.4,57,0.00,,,0.00,WUHU216HW,2013-10-04 17:58:00,
2013-10-04 13:59:00,84.6,67.7,29.99,SE,135,1.6,5.4,57,0.00,,,0.00,WUHU216HW,2013-10-04 17:59:00,
2013-10-04 14:00:00,84.4,68.0,29.99,East,90,2.0,5.4,58,0.00,,,0.00,WUHU216HW,2013-10-04 18:00:00,
2013-10-04 14:03:00,84.2,67.9,29.99,South,170,3.0,5.4,58,0.00,,,0.00,WUHU216HW,2013-10-04 18:03:00,
2013-10-04 14:04:00,84.2,67.9,29.99,South,170,3.0,5.4,58,0.00,,,0.00,WUHU216HW,2013-10-04 18:04:00,
2013-10-04 14:06:00,84.2,68.4,29.99,ESE,113,4.0,4.0,59,0.00,,,0.00,WUHU216HW,2013-10-04 18:06:00,
2013-10-04 14:07:00,84.2,68.4,29.99,ESE,113,3.3,4.0,59,0.00,,,0.00,WUHU216HW,2013-10-04 18:07:00,
2013-10-04 14:10:00,83.9,68.0,29.99,ESE,102,1.5,4.0,59,0.00,,,0.00,WUHU216HW,2013-10-04 18:10:00,
2013-10-04 14:11:00,83.7,67.9,29.98,SW,225,1.6,4.0,59,0.00,,,0.00,WUHU216HW,2013-10-04 18:11:00,
2013-10-04 14:14:00,83.9,68.6,29.98,West,270,2.5,4.0,60,0.00,,,0.00,WUHU216HW,2013-10-04 18:14:00,
2013-10-04 14:15:00,83.9,68.6,29.98,West,265,1.6,4.0,60,0.00,,,0.00,WUHU216HW,2013-10-04 18:15:00,
2013-10-04 14:16:00,83.9,68.6,29.98,WSW,239,0.6,3.8,60,0.00,,,0.00,WUHU216HW,2013-10-04 18:16:00,
2013-10-04 14:17:00,84.1,68.8,29.98,SSE,158,2.0,3.8,60,0.00,,,0.00,WUHU216HW,2013-10-04 18:17:00,
2013-10-04 14:20:00,84.4,69.1,29.98,NE,45,2.7,3.8,60,0.00,,,0.00,WUHU216HW,2013-10-04 18:20:00,
2013-10-04 14:21:00,84.4,67.1,29.98,ESE,113,5.4,5.4,56,0.00,,,0.00,WUHU216HW,2013-10-04 18:21:00,
2013-10-04 14:22:00,84.2,68.4,29.98,SE,126,4.0,5.4,59,0.00,,,0.00,WUHU216HW,2013-10-04 18:22:00,
2013-10-04 14:26:00,83.9,68.0,29.98,ENE,63,2.0,5.4,59,0.00,,,0.00,WUHU216HW,2013-10-04 18:26:00,
2013-10-04 14:27:00,83.7,68.4,29.98,SSW,203,1.1,5.4,60,0.00,,,0.00,WUHU216HW,2013-10-04 18:27:00,
2013-10-04 14:28:00,83.7,68.4,29.98,SSW,203,1.1,5.4,60,0.00,,,0.00,WUHU216HW,2013-10-04 18:28:00,
2013-10-04 14:29:00,83.7,68.4,29.97,ESE,113,2.2,5.4,60,0.00,,,0.00,WUHU216HW,2013-10-04 18:29:00,
2013-10-04 14:31:00,83.7,68.4,29.97,ESE,113,4.4,4.9,60,0.00,,,0.00,WUHU216HW,2013-10-04 18:31:00,
2013-10-04 14:33:00,83.7,67.9,29.97,SE,125,3.0,4.9,59,0.00,,,0.00,WUHU216HW,2013-10-04 18:33:00,
2013-10-04 14:34:00,83.7,68.4,29.97,SSE,158,2.7,4.9,60,0.00,,,0.00,WUHU216HW,2013-10-04 18:34:00,
2013-10-04 14:36:00,83.9,68.6,29.97,SSE,158,2.7,4.9,60,0.00,,,0.00,WUHU216HW,2013-10-04 18:36:00,
2013-10-04 14:38:00,84.2,69.4,29.97,SSW,197,1.5,4.9,61,0.00,,,0.00,WUHU216HW,2013-10-04 18:38:00,
2013-10-04 14:39:00,84.2,68.9,29.97,SSW,203,1.8,4.9,60,0.00,,,0.00,WUHU216HW,2013-10-04 18:39:00,
2013-10-04 14:41:00,84.4,69.1,29.97,SSW,197,0.8,3.4,60,0.00,,,0.00,WUHU216HW,2013-10-04 18:41:00,
2013-10-04 14:42:00,84.6,69.3,29.97,SE,135,0.4,2.7,60,0.00,,,0.00,WUHU216HW,2013-10-04 18:42:00,
2013-10-04 14:43:00,84.4,69.1,29.97,ESE,113,1.3,2.7,60,0.00,,,0.00,WUHU216HW,2013-10-04 18:43:00,
2013-10-04 14:44:00,84.4,69.1,29.97,ESE,102,0.8,2.7,60,0.00,,,0.00,WUHU216HW,2013-10-04 18:44:00,
2013-10-04 14:45:00,84.2,68.4,29.97,NE,46,0.3,2.7,59,0.00,,,0.00,WUHU216HW,2013-10-04 18:45:00,
2013-10-04 14:46:00,84.2,68.9,29.97,South,180,2.2,2.2,60,0.00,,,0.00,WUHU216HW,2013-10-04 18:46:00,
2013-10-04 14:47:00,84.2,68.9,29.97,SSE,158,2.7,2.7,60,0.00,,,0.00,WUHU216HW,2013-10-04 18:47:00,
2013-10-04 14:48:00,84.2,68.9,29.97,SSE,164,1.9,2.7,60,0.00,,,0.00,WUHU216HW,2013-10-04 18:48:00,
2013-10-04 14:49:00,84.2,68.9,29.97,ESE,113,2.5,2.7,60,0.00,,,0.00,WUHU216HW,2013-10-04 18:49:00,
2013-10-04 14:50:00,84.2,68.9,29.97,ESE,113,3.4,3.4,60,0.00,,,0.00,WUHU216HW,2013-10-04 18:50:00,
2013-10-04 14:52:00,84.2,68.9,29.97,East,92,1.3,3.4,60,0.00,,,0.00,WUHU216HW,2013-10-04 18:52:00,
2013-10-04 14:53:00,84.2,68.9,29.97,ESE,113,2.5,3.4,60,0.00,,,0.00,WUHU216HW,2013-10-04 18:53:00,
2013-10-04 14:55:00,84.1,68.2,29.97,East,83,1.2,3.4,59,0.00,,,0.00,WUHU216HW,2013-10-04 18:55:00,
2013-10-04 14:56:00,84.1,68.2,29.97,ESE,113,3.4,3.4,59,0.00,,,0.00,WUHU216HW,2013-10-04 18:56:00,
2013-10-04 14:57:00,83.9,68.0,29.97,SE,143,3.2,3.4,59,0.00,,,0.00,WUHU216HW,2013-10-04 18:57:00,
2013-10-04 14:58:00,83.9,68.0,29.97,South,187,2.1,3.4,59,0.00,,,0.00,WUHU216HW,2013-10-04 18:58:00,
2013-10-04 15:00:00,84.1,67.2,29.97,SE,133,2.8,3.4,57,0.00,,,0.00,WUHU216HW,2013-10-04 19:00:00,
2013-10-04 15:01:00,84.1,68.2,29.97,ESE,113,3.4,3.4,59,0.00,,,0.00,WUHU216HW,2013-10-04 19:01:00,
2013-10-04 15:04:00,84.2,67.9,29.97,SE,142,3.8,4.9,58,0.00,,,0.00,WUHU216HW,2013-10-04 19:04:00,
2013-10-04 15:06:00,84.2,67.4,29.97,ESE,107,2.9,4.9,57,0.00,,,0.00,WUHU216HW,2013-10-04 19:06:00,
2013-10-04 15:08:00,84.6,68.2,29.97,SE,146,4.6,5.6,58,0.00,,,0.00,WUHU216HW,2013-10-04 19:08:00,
2013-10-04 15:09:00,84.6,68.2,29.97,SE,146,4.6,5.6,58,0.00,,,0.00,WUHU216HW,2013-10-04 19:09:00,
2013-10-04 15:11:00,84.8,68.4,29.97,ESE,121,2.5,5.6,58,0.00,,,0.00,WUHU216HW,2013-10-04 19:11:00,
2013-10-04 15:12:00,85.0,68.6,29.97,NNE,32,0.9,5.6,58,0.00,,,0.00,WUHU216HW,2013-10-04 19:12:00,
2013-10-04 15:13:00,85.0,68.1,29.97,SE,135,1.4,5.6,57,0.00,,,0.00,WUHU216HW,2013-10-04 19:13:00,
2013-10-04 15:14:00,85.0,68.1,29.97,SE,135,1.4,5.6,57,0.00,,,0.00,WUHU216HW,2013-10-04 19:14:00,
2013-10-04 15:17:00,85.1,68.2,29.97,SE,135,3.4,4.7,57,0.00,,,0.00,WUHU216HW,2013-10-04 19:17:00,
2013-10-04 15:18:00,85.1,68.2,29.97,SE,135,2.7,4.5,57,0.00,,,0.00,WUHU216HW,2013-10-04 19:18:00,
2013-10-04 15:19:00,85.0,67.5,29.97,SSE,158,2.0,3.8,56,0.00,,,0.00,WUHU216HW,2013-10-04 19:19:00,
2013-10-04 15:20:00,85.0,68.1,29.97,SSE,158,1.1,3.4,57,0.00,,,0.00,WUHU216HW,2013-10-04 19:20:00,
2013-10-04 15:22:00,85.1,68.2,29.97,ESE,113,3.8,3.8,57,0.00,,,0.00,WUHU216HW,2013-10-04 19:22:00,
2013-10-04 15:23:00,85.0,68.1,29.97,South,180,4.3,4.3,57,0.00,,,0.00,WUHU216HW,2013-10-04 19:23:00,
2013-10-04 15:24:00,85.1,68.2,29.96,WSW,248,1.8,4.3,57,0.00,,,0.00,WUHU216HW,2013-10-04 19:24:00,
2013-10-04 15:25:00,85.1,68.2,29.96,WSW,248,1.8,4.3,57,0.00,,,0.00,WUHU216HW,2013-10-04 19:25:00,
2013-10-04 15:28:00,85.7,68.7,29.96,SSW,200,1.5,4.3,57,0.00,,,0.00,WUHU216HW,2013-10-04 19:28:00,
2013-10-04 15:30:00,85.7,68.7,29.96,SSW,203,2.7,4.3,57,0.00,,,0.00,WUHU216HW,2013-10-04 19:30:00,
2013-10-04 15:33:00,85.7,68.7,29.96,WSW,248,3.6,4.7,57,0.00,,,0.00,WUHU216HW,2013-10-04 19:33:00,
2013-10-04 15:34:00,85.7,68.7,29.96,WSW,248,2.3,4.7,57,0.00,,,0.00,WUHU216HW,2013-10-04 19:34:00,
2013-10-04 15:35:00,85.7,68.7,29.96,WSW,248,1.6,4.7,57,0.00,,,0.00,WUHU216HW,2013-10-04 19:35:00,
2013-10-04 15:37:00,85.5,68.5,29.96,SSW,203,2.5,4.7,57,0.00,,,0.00,WUHU216HW,2013-10-04 19:37:00,
2013-10-04 15:38:00,85.5,68.5,29.96,SW,221,2.2,4.7,57,0.00,,,0.00,WUHU216HW,2013-10-04 19:38:00,
2013-10-04 15:39:00,85.5,68.5,29.96,WSW,237,1.1,4.7,57,0.00,,,0.00,WUHU216HW,2013-10-04 19:39:00,
2013-10-04 15:40:00,85.5,68.5,29.96,East,90,3.1,4.7,57,0.00,,,0.00,WUHU216HW,2013-10-04 19:40:00,
2013-10-04 15:41:00,85.3,67.3,29.96,East,90,3.4,3.6,55,0.00,,,0.00,WUHU216HW,2013-10-04 19:41:00,
2013-10-04 15:43:00,84.8,66.8,29.96,ESE,113,2.9,3.4,55,0.00,,,0.00,WUHU216HW,2013-10-04 19:43:00,
2013-10-04 15:44:00,84.6,67.1,29.96,ESE,113,2.9,3.4,56,0.00,,,0.00,WUHU216HW,2013-10-04 19:44:00,
2013-10-04 15:45:00,84.4,67.1,29.96,SE,135,0.4,3.4,56,0.00,,,0.00,WUHU216HW,2013-10-04 19:45:00,
2013-10-04 15:46:00,84.4,67.5,29.96,South,180,0.4,3.4,57,0.00,,,0.00,WUHU216HW,2013-10-04 19:46:00,
2013-10-04 15:48:00,84.6,67.7,29.96,WSW,248,0.4,3.4,57,0.00,,,0.00,WUHU216HW,2013-10-04 19:48:00,
2013-10-04 15:49:00,84.6,67.7,29.96,SW,225,1.8,3.4,57,0.00,,,0.00,WUHU216HW,2013-10-04 19:49:00,
2013-10-04 15:50:00,84.6,67.7,29.96,SW,227,1.0,3.4,57,0.00,,,0.00,WUHU216HW,2013-10-04 19:50:00,
2013-10-04 15:51:00,84.6,67.7,29.96,SW,225,0.4,2.9,57,0.00,,,0.00,WUHU216HW,2013-10-04 19:51:00,
2013-10-04 15:52:00,84.8,68.4,29.95,East,90,1.3,2.9,58,0.00,,,0.00,WUHU216HW,2013-10-04 19:52:00,
2013-10-04 15:53:00,84.8,68.4,29.96,SW,225,2.0,2.0,58,0.00,,,0.00,WUHU216HW,2013-10-04 19:53:00,
2013-10-04 15:54:00,85.0,68.1,29.95,SSW,203,2.5,2.5,57,0.00,,,0.00,WUHU216HW,2013-10-04 19:54:00,
2013-10-04 15:56:00,85.0,68.1,29.95,SSW,203,2.5,2.5,57,0.00,,,0.00,WUHU216HW,2013-10-04 19:56:00,
2013-10-04 15:58:00,85.0,68.1,29.95,SSE,158,1.6,2.5,57,0.00,,,0.00,WUHU216HW,2013-10-04 19:58:00,
2013-10-04 15:59:00,85.0,68.1,29.95,ESE,123,2.3,2.5,57,0.00,,,0.00,WUHU216HW,2013-10-04 19:59:00,
2013-10-04 16:00:00,85.0,68.1,29.95,SE,125,1.5,2.5,57,0.00,,,0.00,WUHU216HW,2013-10-04 20:00:00,
2013-10-04 16:01:00,85.1,68.2,29.95,East,90,0.7,2.5,57,0.00,,,0.00,WUHU216HW,2013-10-04 20:01:00,
2013-10-04 16:03:00,85.1,68.2,29.95,NNE,18,0.6,2.5,57,0.00,,,0.00,WUHU216HW,2013-10-04 20:03:00,
2013-10-04 16:04:00,85.1,68.2,29.95,SSE,158,1.3,2.5,57,0.00,,,0.00,WUHU216HW,2013-10-04 20:04:00,
2013-10-04 16:05:00,85.1,68.2,29.95,SSE,147,0.8,2.5,57,0.00,,,0.00,WUHU216HW,2013-10-04 20:05:00,
2013-10-04 16:07:00,85.1,68.2,29.95,NE,45,1.1,2.5,57,0.00,,,0.00,WUHU216HW,2013-10-04 20:07:00,
2013-10-04 16:08:00,85.3,68.3,29.95,SE,135,1.1,2.2,57,0.00,,,0.00,WUHU216HW,2013-10-04 20:08:00,
2013-10-04 16:10:00,85.3,68.3,29.95,SE,135,3.5,3.6,57,0.00,,,0.00,WUHU216HW,2013-10-04 20:10:00,
2013-10-04 16:11:00,85.3,67.9,29.95,SE,124,2.3,3.6,56,0.00,,,0.00,WUHU216HW,2013-10-04 20:11:00,
2013-10-04 16:12:00,85.3,67.9,29.95,ESE,113,2.2,3.6,56,0.00,,,0.00,WUHU216HW,2013-10-04 20:12:00,
2013-10-04 16:13:00,85.1,67.7,29.95,ESE,103,1.5,3.6,56,0.00,,,0.00,WUHU216HW,2013-10-04 20:13:00,
2013-10-04 16:14:00,85.1,68.2,29.95,West,281,0.6,3.6,57,0.00,,,0.00,WUHU216HW,2013-10-04 20:14:00,
2013-10-04 16:15:00,85.1,68.2,29.95,North,0,0.4,3.6,57,0.00,,,0.00,WUHU216HW,2013-10-04 20:15:00,
2013-10-04 16:18:00,84.8,66.3,29.95,ENE,74,2.2,4.0,54,0.00,,,0.00,WUHU216HW,2013-10-04 20:18:00,
2013-10-04 16:19:00,84.6,66.2,29.95,NE,38,0.9,4.0,54,0.00,,,0.00,WUHU216HW,2013-10-04 20:19:00,
2013-10-04 16:20:00,84.4,66.5,29.95,North,0,0.4,4.0,55,0.00,,,0.00,WUHU216HW,2013-10-04 20:20:00,
2013-10-04 16:21:00,84.2,66.3,29.95,North,0,0.4,4.0,55,0.00,,,0.00,WUHU216HW,2013-10-04 20:21:00,
2013-10-04 16:23:00,84.2,66.9,29.95,WNW,294,1.1,4.0,56,0.00,,,0.00,WUHU216HW,2013-10-04 20:23:00,
2013-10-04 16:24:00,84.2,66.9,29.95,North,0,0.9,4.0,56,0.00,,,0.00,WUHU216HW,2013-10-04 20:24:00,
2013-10-04 16:25:00,84.2,66.9,29.95,South,180,3.1,4.0,56,0.00,,,0.00,WUHU216HW,2013-10-04 20:25:00,
2013-10-04 16:27:00,84.4,67.5,29.95,SSW,203,1.1,3.1,57,0.00,,,0.00,WUHU216HW,2013-10-04 20:27:00,
2013-10-04 16:29:00,84.4,67.5,29.95,SSE,158,1.4,3.1,57,0.00,,,0.00,WUHU216HW,2013-10-04 20:29:00,
2013-10-04 16:30:00,84.4,67.5,29.95,NNE,23,1.3,3.1,57,0.00,,,0.00,WUHU216HW,2013-10-04 20:30:00,
2013-10-04 16:31:00,84.4,67.5,29.95,East,90,1.6,3.1,57,0.00,,,0.00,WUHU216HW,2013-10-04 20:31:00,
2013-10-04 16:32:00,84.4,67.1,29.95,East,90,1.3,3.1,56,0.00,,,0.00,WUHU216HW,2013-10-04 20:32:00,
2013-10-04 16:33:00,84.4,67.1,29.95,East,90,0.9,3.1,56,0.00,,,0.00,WUHU216HW,2013-10-04 20:33:00,
2013-10-04 16:34:00,84.4,67.1,29.95,East,90,0.9,3.1,56,0.00,,,0.00,WUHU216HW,2013-10-04 20:34:00,
2013-10-04 16:36:00,84.6,67.7,29.95,WSW,248,0.8,2.5,57,0.00,,,0.00,WUHU216HW,2013-10-04 20:36:00,
2013-10-04 16:37:00,84.4,67.5,29.94,SW,225,0.9,2.5,57,0.00,,,0.00,WUHU216HW,2013-10-04 20:37:00,
2013-10-04 16:38:00,84.4,68.0,29.95,SE,135,1.6,1.6,58,0.00,,,0.00,WUHU216HW,2013-10-04 20:38:00,
2013-10-04 16:39:00,84.4,68.0,29.95,South,180,2.5,2.5,58,0.00,,,0.00,WUHU216HW,2013-10-04 20:39:00,
2013-10-04 16:41:00,84.6,68.2,29.95,SSE,150,1.3,2.5,58,0.00,,,0.00,WUHU216HW,2013-10-04 20:41:00,
2013-10-04 16:43:00,84.6,68.2,29.95,South,185,0.8,2.5,58,0.00,,,0.00,WUHU216HW,2013-10-04 20:43:00,
2013-10-04 16:44:00,84.6,68.2,29.95,South,185,0.8,2.5,58,0.00,,,0.00,WUHU216HW,2013-10-04 20:44:00,
2013-10-04 16:45:00,84.6,68.2,29.95,SW,225,1.8,2.5,58,0.00,,,0.00,WUHU216HW,2013-10-04 20:45:00,
2013-10-04 16:47:00,84.6,68.2,29.95,SW,216,1.5,2.5,58,0.00,,,0.00,WUHU216HW,2013-10-04 20:47:00,
2013-10-04 16:48:00,84.8,68.4,29.95,SE,135,1.3,2.5,58,0.00,,,0.00,WUHU216HW,2013-10-04 20:48:00,
2013-10-04 16:49:00,84.6,68.2,29.95,SE,135,0.8,1.8,58,0.00,,,0.00,WUHU216HW,2013-10-04 20:49:00,
2013-10-04 16:50:00,84.6,68.2,29.95,SE,135,0.8,1.8,58,0.00,,,0.00,WUHU216HW,2013-10-04 20:50:00,
2013-10-04 16:51:00,84.6,68.2,29.95,SSE,158,3.1,3.1,58,0.00,,,0.00,WUHU216HW,2013-10-04 20:51:00,
2013-10-04 16:54:00,84.6,68.2,29.95,SW,222,0.6,3.1,58,0.00,,,0.00,WUHU216HW,2013-10-04 20:54:00,
2013-10-04 16:55:00,84.6,68.2,29.95,SW,222,0.6,3.1,58,0.00,,,0.00,WUHU216HW,2013-10-04 20:55:00,
2013-10-04 16:58:00,84.6,68.8,29.95,SSW,196,1.5,3.1,59,0.00,,,0.00,WUHU216HW,2013-10-04 20:58:00,
2013-10-04 16:59:00,84.6,68.2,29.95,SSE,162,1.8,3.1,58,0.00,,,0.00,WUHU216HW,2013-10-04 20:59:00,
2013-10-04 17:00:00,84.6,68.2,29.95,SSE,156,1.3,3.1,58,0.00,,,0.00,WUHU216HW,2013-10-04 21:00:00,
2013-10-04 17:01:00,84.6,68.2,29.95,SSE,156,1.3,2.5,58,0.00,,,0.00,WUHU216HW,2013-10-04 21:01:00,
2013-10-04 17:02:00,84.6,68.2,29.95,WSW,248,1.8,2.5,58,0.00,,,0.00,WUHU216HW,2013-10-04 21:02:00,
2013-10-04 17:04:00,84.4,68.0,29.95,SSW,203,2.5,2.5,58,0.00,,,0.00,WUHU216HW,2013-10-04 21:04:00,
2013-10-04 17:05:00,84.4,68.0,29.95,South,180,2.5,2.5,58,0.00,,,0.00,WUHU216HW,2013-10-04 21:05:00,
2013-10-04 17:06:00,84.2,67.9,29.95,SSE,161,2.2,2.5,58,0.00,,,0.00,WUHU216HW,2013-10-04 21:06:00,
2013-10-04 17:07:00,84.2,67.9,29.95,ESE,113,1.8,2.5,58,0.00,,,0.00,WUHU216HW,2013-10-04 21:07:00,
2013-10-04 17:09:00,84.1,67.7,29.95,SSE,158,0.7,2.5,58,0.00,,,0.00,WUHU216HW,2013-10-04 21:09:00,
2013-10-04 17:10:00,84.1,67.7,29.95,SSE,158,0.7,2.5,58,0.00,,,0.00,WUHU216HW,2013-10-04 21:10:00,
2013-10-04 17:11:00,84.1,67.7,29.95,SSE,158,0.6,2.5,58,0.00,,,0.00,WUHU216HW,2013-10-04 21:11:00,
2013-10-04 17:12:00,84.1,68.2,29.95,WNW,293,0.4,2.5,59,0.00,,,0.00,WUHU216HW,2013-10-04 21:12:00,
2013-10-04 17:16:00,84.1,68.2,29.95,WSW,241,1.3,2.2,59,0.00,,,0.00,WUHU216HW,2013-10-04 21:16:00,
2013-10-04 17:17:00,84.1,68.2,29.95,SSW,203,1.1,2.2,59,0.00,,,0.00,WUHU216HW,2013-10-04 21:17:00,
2013-10-04 17:18:00,84.1,68.2,29.95,SSE,158,2.0,2.0,59,0.00,,,0.00,WUHU216HW,2013-10-04 21:18:00,
2013-10-04 17:19:00,83.9,68.0,29.95,SSW,199,1.9,2.0,59,0.00,,,0.00,WUHU216HW,2013-10-04 21:19:00,
2013-10-04 17:22:00,83.9,68.0,29.95,SW,225,0.2,2.2,59,0.00,,,0.00,WUHU216HW,2013-10-04 21:22:00,
2013-10-04 17:23:00,83.7,67.9,29.95,SW,225,0.2,2.2,59,0.00,,,0.00,WUHU216HW,2013-10-04 21:23:00,
2013-10-04 17:24:00,83.7,67.9,29.95,SSE,158,1.1,2.2,59,0.00,,,0.00,WUHU216HW,2013-10-04 21:24:00,
2013-10-04 17:25:00,83.5,68.2,29.95,South,187,1.0,2.2,60,0.00,,,0.00,WUHU216HW,2013-10-04 21:25:00,
2013-10-04 17:27:00,83.5,67.7,29.95,SSE,147,2.5,2.7,59,0.00,,,0.00,WUHU216HW,2013-10-04 21:27:00,
2013-10-04 17:28:00,83.3,67.0,29.95,South,170,1.8,2.7,58,0.00,,,0.00,WUHU216HW,2013-10-04 21:28:00,
2013-10-04 17:30:00,83.3,67.0,29.95,WSW,248,0.4,2.7,58,0.00,,,0.00,WUHU216HW,2013-10-04 21:30:00,
2013-10-04 17:31:00,83.3,67.5,29.95,WSW,248,0.4,2.7,59,0.00,,,0.00,WUHU216HW,2013-10-04 21:31:00,
2013-10-04 17:34:00,83.2,67.3,29.95,WSW,248,0.0,2.7,59,0.00,,,0.00,WUHU216HW,2013-10-04 21:34:00,
2013-10-04 17:35:00,83.0,67.1,29.94,SW,225,0.0,2.7,59,0.00,,,0.00,WUHU216HW,2013-10-04 21:35:00,
2013-10-04 17:37:00,82.8,67.0,29.95,SSW,203,1.8,1.8,59,0.00,,,0.00,WUHU216HW,2013-10-04 21:37:00,
2013-10-04 17:38:00,82.8,67.0,29.95,SSW,203,1.8,1.8,59,0.00,,,0.00,WUHU216HW,2013-10-04 21:38:00,
2013-10-04 17:39:00,82.8,67.0,29.95,South,174,1.5,1.8,59,0.00,,,0.00,WUHU216HW,2013-10-04 21:39:00,
2013-10-04 17:40:00,82.4,66.6,29.95,SSW,194,1.2,1.8,59,0.00,,,0.00,WUHU216HW,2013-10-04 21:40:00,
2013-10-04 17:41:00,82.4,66.6,29.95,SSE,158,0.8,1.8,59,0.00,,,0.00,WUHU216HW,2013-10-04 21:41:00,
2013-10-04 17:42:00,82.4,66.6,29.95,WSW,248,1.1,1.8,59,0.00,,,0.00,WUHU216HW,2013-10-04 21:42:00,
2013-10-04 17:44:00,82.3,67.0,29.95,South,180,2.2,2.2,60,0.00,,,0.00,WUHU216HW,2013-10-04 21:44:00,
2013-10-04 17:46:00,82.1,66.8,29.95,SSW,204,1.8,2.2,60,0.00,,,0.00,WUHU216HW,2013-10-04 21:46:00,
2013-10-04 17:48:00,81.9,66.2,29.94,South,185,0.8,2.2,59,0.00,,,0.00,WUHU216HW,2013-10-04 21:48:00,
2013-10-04 17:49:00,81.9,66.2,29.94,ESE,113,0.4,2.2,59,0.00,,,0.00,WUHU216HW,2013-10-04 21:49:00,
2013-10-04 17:50:00,81.7,66.0,29.94,SSE,165,1.7,2.2,59,0.00,,,0.00,WUHU216HW,2013-10-04 21:50:00,
2013-10-04 17:52:00,81.7,66.0,29.95,South,180,1.0,2.2,59,0.00,,,0.00,WUHU216HW,2013-10-04 21:52:00,
2013-10-04 17:54:00,81.5,66.3,29.94,SE,135,0.2,2.2,60,0.00,,,0.00,WUHU216HW,2013-10-04 21:54:00,
2013-10-04 17:55:00,81.5,66.3,29.94,SSW,203,1.6,2.2,60,0.00,,,0.00,WUHU216HW,2013-10-04 21:55:00,
2013-10-04 17:56:00,81.5,66.3,29.94,SSW,203,1.6,2.2,60,0.00,,,0.00,WUHU216HW,2013-10-04 21:56:00,
2013-10-04 17:58:00,81.4,66.2,29.94,West,270,0.8,2.2,60,0.00,,,0.00,WUHU216HW,2013-10-04 21:58:00,
2013-10-04 17:59:00,81.2,66.0,29.94,South,174,0.5,1.8,60,0.00,,,0.00,WUHU216HW,2013-10-04 21:59:00,
2013-10-04 18:00:00,81.2,66.0,29.94,South,174,0.5,1.8,60,0.00,,,0.00,WUHU216HW,2013-10-04 22:00:00,
2013-10-04 18:01:00,81.2,66.0,29.94,SSE,165,0.3,1.8,60,0.00,,,0.00,WUHU216HW,2013-10-04 22:01:00,
2013-10-04 18:05:00,81.0,66.3,29.94,SW,225,0.0,1.1,61,0.00,,,0.00,WUHU216HW,2013-10-04 22:05:00,
2013-10-04 18:06:00,81.0,66.3,29.94,West,270,0.9,0.9,61,0.00,,,0.00,WUHU216HW,2013-10-04 22:06:00,
2013-10-04 18:10:00,80.6,66.4,29.94,SE,135,1.8,1.8,62,0.00,,,0.00,WUHU216HW,2013-10-04 22:10:00,
2013-10-04 18:11:00,80.6,66.4,29.94,SE,135,1.8,1.8,62,0.00,,,0.00,WUHU216HW,2013-10-04 22:11:00,
2013-10-04 18:12:00,80.5,66.2,29.94,SE,141,1.3,1.8,62,0.00,,,0.00,WUHU216HW,2013-10-04 22:12:00,
2013-10-04 18:13:00,80.5,66.2,29.94,SSE,158,0.7,1.8,62,0.00,,,0.00,WUHU216HW,2013-10-04 22:13:00,
2013-10-04 18:17:00,80.3,66.1,29.94,SSW,203,0.0,1.8,62,0.00,,,0.00,WUHU216HW,2013-10-04 22:17:00,
2013-10-04 18:18:00,80.3,66.1,29.94,SSW,203,0.0,1.8,62,0.00,,,0.00,WUHU216HW,2013-10-04 22:18:00,
2013-10-04 18:22:00,79.9,66.3,29.94,WSW,240,0.3,1.3,63,0.00,,,0.00,WUHU216HW,2013-10-04 22:22:00,
2013-10-04 18:23:00,79.9,66.3,29.94,SW,225,0.2,1.3,63,0.00,,,0.00,WUHU216HW,2013-10-04 22:23:00,
2013-10-04 18:24:00,79.9,66.3,29.94,SSW,203,0.0,1.3,63,0.00,,,0.00,WUHU216HW,2013-10-04 22:24:00,
2013-10-04 18:28:00,79.6,66.3,29.94,SW,225,0.0,1.3,64,0.00,,,0.00,WUHU216HW,2013-10-04 22:28:00,
2013-10-04 18:29:00,79.6,66.3,29.94,SW,225,0.0,1.3,64,0.00,,,0.00,WUHU216HW,2013-10-04 22:29:00,
2013-10-04 18:33:00,79.2,66.0,29.94,SW,225,0.7,0.9,64,0.00,,,0.00,WUHU216HW,2013-10-04 22:33:00,
2013-10-04 18:34:00,79.2,66.4,29.94,SW,225,0.0,0.9,65,0.00,,,0.00,WUHU216HW,2013-10-04 22:34:00,
2013-10-04 18:35:00,79.0,66.3,29.94,SW,225,0.0,0.9,65,0.00,,,0.00,WUHU216HW,2013-10-04 22:35:00,
2013-10-04 18:38:00,78.7,65.9,29.94,SW,225,0.0,0.9,65,0.00,,,0.00,WUHU216HW,2013-10-04 22:38:00,
2013-10-04 18:39:00,78.5,66.2,29.94,SW,225,0.0,0.9,66,0.00,,,0.00,WUHU216HW,2013-10-04 22:39:00,
2013-10-04 18:40:00,78.5,66.2,29.94,SW,225,0.0,0.9,66,0.00,,,0.00,WUHU216HW,2013-10-04 22:40:00,
2013-10-04 18:41:00,78.3,66.0,29.94,SW,225,0.0,0.7,66,0.00,,,0.00,WUHU216HW,2013-10-04 22:41:00,
2013-10-04 18:45:00,78.1,65.8,29.94,SW,225,0.0,0.0,66,0.00,,,0.00,WUHU216HW,2013-10-04 22:45:00,
2013-10-04 18:46:00,77.9,66.1,29.94,SW,225,0.0,0.0,67,0.00,,,0.00,WUHU216HW,2013-10-04 22:46:00,
2013-10-04 18:47:00,77.8,65.9,29.94,SW,225,0.0,0.0,67,0.00,,,0.00,WUHU216HW,2013-10-04 22:47:00,
2013-10-04 18:50:00,77.6,65.8,29.94,SW,225,0.0,0.0,67,0.00,,,0.00,WUHU216HW,2013-10-04 22:50:00,
2013-10-04 18:51:00,77.4,66.1,29.94,SW,225,0.0,0.0,68,0.00,,,0.00,WUHU216HW,2013-10-04 22:51:00,
2013-10-04 18:52:00,77.4,66.1,29.94,SW,225,0.0,0.0,68,0.00,,,0.00,WUHU216HW,2013-10-04 22:52:00,
2013-10-04 18:55:00,77.0,65.7,29.94,SW,225,0.0,0.0,68,0.00,,,0.00,WUHU216HW,2013-10-04 22:55:00,
2013-10-04 18:56:00,77.0,65.7,29.94,SW,225,0.0,0.0,68,0.00,,,0.00,WUHU216HW,2013-10-04 22:56:00,
2013-10-04 18:57:00,77.0,66.2,29.94,SW,225,0.0,0.0,69,0.00,,,0.00,WUHU216HW,2013-10-04 22:57:00,
2013-10-04 18:58:00,76.7,65.8,29.94,SW,225,0.0,0.0,69,0.00,,,0.00,WUHU216HW,2013-10-04 22:58:00,
2013-10-04 18:59:00,76.7,65.8,29.94,SW,225,0.0,0.0,69,0.00,,,0.00,WUHU216HW,2013-10-04 22:59:00,
2013-10-04 19:01:00,76.7,66.2,29.94,SW,225,0.0,0.0,70,0.00,,,0.00,WUHU216HW,2013-10-04 23:01:00,
2013-10-04 19:02:00,76.5,66.1,29.94,SW,225,0.0,0.0,70,0.00,,,0.00,WUHU216HW,2013-10-04 23:02:00,
2013-10-04 19:03:00,76.5,66.1,29.95,SW,225,0.0,0.0,70,0.00,,,0.00,WUHU216HW,2013-10-04 23:03:00,
2013-10-04 19:04:00,76.3,65.9,29.95,SW,225,0.0,0.0,70,0.00,,,0.00,WUHU216HW,2013-10-04 23:04:00,
2013-10-04 19:05:00,76.3,65.9,29.94,SW,225,0.0,0.0,70,0.00,,,0.00,WUHU216HW,2013-10-04 23:05:00,
2013-10-04 19:07:00,76.1,65.7,29.95,SW,225,0.0,0.0,70,0.00,,,0.00,WUHU216HW,2013-10-04 23:07:00,
2013-10-04 19:08:00,76.0,65.9,29.94,SW,225,0.0,0.0,71,0.00,,,0.00,WUHU216HW,2013-10-04 23:08:00,
2013-10-04 19:09:00,76.0,65.9,29.95,SW,225,0.0,0.0,71,0.00,,,0.00,WUHU216HW,2013-10-04 23:09:00,
2013-10-04 19:10:00,76.0,65.9,29.95,SW,225,0.0,0.0,71,0.00,,,0.00,WUHU216HW,2013-10-04 23:10:00,
2013-10-04 19:13:00,75.6,65.5,29.95,SW,225,0.0,0.0,71,0.00,,,0.00,WUHU216HW,2013-10-04 23:13:00,
2013-10-04 19:14:00,75.6,65.5,29.95,SW,225,0.0,0.0,71,0.00,,,0.00,WUHU216HW,2013-10-04 23:14:00,
2013-10-04 19:15:00,75.4,65.3,29.95,SW,225,0.0,0.0,71,0.00,,,0.00,WUHU216HW,2013-10-04 23:15:00,
2013-10-04 19:19:00,75.2,65.6,29.94,SW,225,0.0,0.0,72,0.00,,,0.00,WUHU216HW,2013-10-04 23:19:00,
2013-10-04 19:20:00,75.1,65.4,29.95,SW,225,0.0,0.0,72,0.00,,,0.00,WUHU216HW,2013-10-04 23:20:00,
2013-10-04 19:21:00,75.1,65.8,29.95,SW,225,0.0,0.0,73,0.00,,,0.00,WUHU216HW,2013-10-04 23:21:00,
2013-10-04 19:24:00,74.7,65.5,29.95,SW,225,0.0,0.0,73,0.00,,,0.00,WUHU216HW,2013-10-04 23:24:00,
2013-10-04 19:25:00,74.5,65.4,29.95,SW,225,0.0,0.0,73,0.00,,,0.00,WUHU216HW,2013-10-04 23:25:00,
2013-10-04 19:26:00,74.5,65.4,29.95,SW,225,0.0,0.0,73,0.00,,,0.00,WUHU216HW,2013-10-04 23:26:00,
2013-10-04 19:27:00,74.3,65.2,29.95,SW,225,0.0,0.0,73,0.00,,,0.00,WUHU216HW,2013-10-04 23:27:00,
2013-10-04 19:29:00,74.2,65.3,29.95,SW,225,0.0,0.0,74,0.00,,,0.00,WUHU216HW,2013-10-04 23:29:00,
2013-10-04 19:30:00,74.2,65.3,29.95,SW,225,0.0,0.0,74,0.00,,,0.00,WUHU216HW,2013-10-04 23:30:00,
2013-10-04 19:31:00,74.0,65.2,29.95,SW,225,0.0,0.0,74,0.00,,,0.00,WUHU216HW,2013-10-04 23:31:00,
2013-10-04 19:35:00,73.6,65.3,29.95,SW,225,0.0,0.0,75,0.00,,,0.00,WUHU216HW,2013-10-04 23:35:00,
2013-10-04 19:36:00,73.6,65.3,29.95,SW,225,0.0,0.0,75,0.00,,,0.00,WUHU216HW,2013-10-04 23:36:00,
2013-10-04 19:38:00,73.4,65.1,29.95,ESE,113,0.2,0.7,75,0.00,,,0.00,WUHU216HW,2013-10-04 23:38:00,
2013-10-04 19:39:00,73.4,65.1,29.95,ESE,113,0.2,0.7,75,0.00,,,0.00,WUHU216HW,2013-10-04 23:39:00,
2013-10-04 19:40:00,73.3,64.9,29.95,ESE,113,0.0,0.7,75,0.00,,,0.00,WUHU216HW,2013-10-04 23:40:00,
2013-10-04 19:41:00,73.3,64.9,29.95,ESE,113,0.0,0.7,75,0.00,,,0.00,WUHU216HW,2013-10-04 23:41:00,
2013-10-04 19:43:00,73.1,65.1,29.95,ESE,113,0.0,0.7,76,0.00,,,0.00,WUHU216HW,2013-10-04 23:43:00,
2013-10-04 19:44:00,72.9,64.9,29.95,ESE,113,0.0,0.7,76,0.00,,,0.00,WUHU216HW,2013-10-04 23:44:00,
2013-10-04 19:45:00,72.9,64.9,29.95,ESE,113,0.0,0.7,76,0.00,,,0.00,WUHU216HW,2013-10-04 23:45:00,
2013-10-04 19:46:00,72.7,64.7,29.95,ESE,113,0.0,0.2,76,0.00,,,0.00,WUHU216HW,2013-10-04 23:46:00,
2013-10-04 19:47:00,72.7,64.7,29.95,ESE,113,0.0,0.0,76,0.00,,,0.00,WUHU216HW,2013-10-04 23:47:00,
2013-10-04 19:50:00,72.4,64.7,29.95,ESE,113,0.0,0.0,77,0.00,,,0.00,WUHU216HW,2013-10-04 23:50:00,
2013-10-04 19:51:00,72.4,64.7,29.95,ESE,113,0.0,0.0,77,0.00,,,0.00,WUHU216HW,2013-10-04 23:51:00,
2013-10-04 19:53:00,72.4,64.7,29.95,ESE,113,0.0,0.0,77,0.00,,,0.00,WUHU216HW,2013-10-04 23:53:00,
2013-10-04 19:54:00,72.4,64.7,29.95,ESE,113,0.0,0.0,77,0.00,,,0.00,WUHU216HW,2013-10-04 23:54:00,
2013-10-04 19:55:00,72.2,64.5,29.95,ESE,113,0.0,0.0,77,0.00,,,0.00,WUHU216HW,2013-10-04 23:55:00,
2013-10-04 19:56:00,72.2,64.5,29.95,ESE,113,0.0,0.0,77,0.00,,,0.00,WUHU216HW,2013-10-04 23:56:00,
2013-10-04 19:59:00,72.0,64.4,29.95,ESE,113,0.0,0.0,77,0.00,,,0.00,WUHU216HW,2013-10-04 23:59:00,
2013-10-04 20:01:00,71.8,64.2,29.95,ESE,113,0.0,0.0,77,0.00,,,0.00,WUHU216HW,2013-10-05 00:01:00,
2013-10-04 20:02:00,71.8,64.2,29.95,ESE,113,0.0,0.0,77,0.00,,,0.00,WUHU216HW,2013-10-05 00:02:00,
2013-10-04 20:04:00,71.6,64.5,29.95,ESE,113,0.0,0.0,78,0.00,,,0.00,WUHU216HW,2013-10-05 00:04:00,
2013-10-04 20:05:00,71.6,64.5,29.95,ESE,113,0.0,0.0,78,0.00,,,0.00,WUHU216HW,2013-10-05 00:05:00,
2013-10-04 20:07:00,71.5,64.3,29.95,SE,135,0.0,0.0,78,0.00,,,0.00,WUHU216HW,2013-10-05 00:07:00,
2013-10-04 20:08:00,71.5,64.3,29.95,SE,135,0.0,0.0,78,0.00,,,0.00,WUHU216HW,2013-10-05 00:08:00,
2013-10-04 20:10:00,71.3,64.1,29.95,SW,225,0.0,0.0,78,0.00,,,0.00,WUHU216HW,2013-10-05 00:10:00,
2013-10-04 20:12:00,71.1,64.3,29.95,SW,225,0.0,0.0,79,0.00,,,0.00,WUHU216HW,2013-10-05 00:12:00,
2013-10-04 20:13:00,71.1,64.3,29.95,SW,225,0.0,0.0,79,0.00,,,0.00,WUHU216HW,2013-10-05 00:13:00,
2013-10-04 20:16:00,70.9,64.1,29.95,SW,225,0.0,0.0,79,0.00,,,0.00,WUHU216HW,2013-10-05 00:16:00,
2013-10-04 20:17:00,70.9,64.4,29.95,SW,225,0.0,0.0,80,0.00,,,0.00,WUHU216HW,2013-10-05 00:17:00,
2013-10-04 20:18:00,70.7,64.3,29.95,SW,225,0.0,0.0,80,0.00,,,0.00,WUHU216HW,2013-10-05 00:18:00,
2013-10-04 20:19:00,70.7,64.3,29.95,SW,225,0.0,0.0,80,0.00,,,0.00,WUHU216HW,2013-10-05 00:19:00,
2013-10-04 20:21:00,70.6,64.1,29.96,SW,225,0.0,0.0,80,0.00,,,0.00,WUHU216HW,2013-10-05 00:21:00,
2013-10-04 20:22:00,70.6,64.1,29.96,SW,225,0.0,0.0,80,0.00,,,0.00,WUHU216HW,2013-10-05 00:22:00,
2013-10-04 20:23:00,70.4,63.9,29.95,SW,225,0.0,0.0,80,0.00,,,0.00,WUHU216HW,2013-10-05 00:23:00,
2013-10-04 20:24:00,70.4,63.9,29.96,SW,225,0.0,0.0,80,0.00,,,0.00,WUHU216HW,2013-10-05 00:24:00,
2013-10-04 20:25:00,70.4,63.9,29.96,SW,225,0.0,0.0,80,0.00,,,0.00,WUHU216HW,2013-10-05 00:25:00,
2013-10-04 20:26:00,70.2,63.7,29.95,SW,225,0.0,0.0,80,0.00,,,0.00,WUHU216HW,2013-10-05 00:26:00,
2013-10-04 20:29:00,70.0,63.5,29.95,SW,225,0.0,0.0,80,0.00,,,0.00,WUHU216HW,2013-10-05 00:29:00,
2013-10-04 20:30:00,70.0,63.5,29.95,SW,225,0.0,0.0,80,0.00,,,0.00,WUHU216HW,2013-10-05 00:30:00,
2013-10-04 20:31:00,69.8,63.7,29.95,SW,225,0.0,0.0,81,0.00,,,0.00,WUHU216HW,2013-10-05 00:31:00,
2013-10-04 20:32:00,69.8,63.7,29.95,SW,225,0.0,0.0,81,0.00,,,0.00,WUHU216HW,2013-10-05 00:32:00,
2013-10-04 20:35:00,69.8,64.1,29.96,SW,225,0.0,0.0,82,0.00,,,0.00,WUHU216HW,2013-10-05 00:35:00,
2013-10-04 20:36:00,69.7,63.6,29.96,SW,225,0.0,0.0,81,0.00,,,0.00,WUHU216HW,2013-10-05 00:36:00,
2013-10-04 20:37:00,69.7,63.6,29.96,SW,225,0.0,0.0,81,0.00,,,0.00,WUHU216HW,2013-10-05 00:37:00,
2013-10-04 20:38:00,69.7,63.6,29.96,SW,225,0.0,0.0,81,0.00,,,0.00,WUHU216HW,2013-10-05 00:38:00,
2013-10-04 20:39:00,69.5,63.4,29.96,SW,225,0.0,0.0,81,0.00,,,0.00,WUHU216HW,2013-10-05 00:39:00,
2013-10-04 20:40:00,69.5,63.7,29.96,SW,225,0.0,0.0,82,0.00,,,0.00,WUHU216HW,2013-10-05 00:40:00,
2013-10-04 20:42:00,69.5,63.7,29.96,SW,225,0.0,0.0,82,0.00,,,0.00,WUHU216HW,2013-10-05 00:42:00,
2013-10-04 20:44:00,69.3,63.5,29.96,SW,225,0.0,0.0,82,0.00,,,0.00,WUHU216HW,2013-10-05 00:44:00,
2013-10-04 20:45:00,69.3,63.5,29.96,SW,225,0.0,0.0,82,0.00,,,0.00,WUHU216HW,2013-10-05 00:45:00,
2013-10-04 20:46:00,69.3,63.5,29.96,SW,225,0.0,0.0,82,0.00,,,0.00,WUHU216HW,2013-10-05 00:46:00,
2013-10-04 20:48:00,69.1,63.4,29.96,SW,225,0.0,0.0,82,0.00,,,0.00,WUHU216HW,2013-10-05 00:48:00,
2013-10-04 20:51:00,69.1,63.4,29.96,SW,225,0.0,0.0,82,0.00,,,0.00,WUHU216HW,2013-10-05 00:51:00,
2013-10-04 20:52:00,68.9,63.2,29.96,SW,225,0.0,0.0,82,0.00,,,0.00,WUHU216HW,2013-10-05 00:52:00,
2013-10-04 20:53:00,68.9,63.5,29.96,SW,225,0.0,0.0,83,0.00,,,0.00,WUHU216HW,2013-10-05 00:53:00,
2013-10-04 20:57:00,68.8,63.4,29.96,SW,225,0.0,0.0,83,0.00,,,0.00,WUHU216HW,2013-10-05 00:57:00,
2013-10-04 20:58:00,68.8,63.4,29.96,SW,225,0.0,0.0,83,0.00,,,0.00,WUHU216HW,2013-10-05 00:58:00,
2013-10-04 20:59:00,68.8,63.4,29.96,SW,225,0.0,0.0,83,0.00,,,0.00,WUHU216HW,2013-10-05 00:59:00,
2013-10-04 21:02:00,68.4,63.4,29.96,SW,225,0.0,0.0,84,0.00,,,0.00,WUHU216HW,2013-10-05 01:02:00,
2013-10-04 21:03:00,68.4,63.4,29.96,SW,225,0.0,0.0,84,0.00,,,0.00,WUHU216HW,2013-10-05 01:03:00,
2013-10-04 21:05:00,68.4,63.4,29.96,SW,225,0.0,0.0,84,0.00,,,0.00,WUHU216HW,2013-10-05 01:05:00,
2013-10-04 21:06:00,68.2,63.2,29.96,SW,225,0.0,0.0,84,0.00,,,0.00,WUHU216HW,2013-10-05 01:06:00,
2013-10-04 21:08:00,68.2,63.2,29.97,SW,225,0.0,0.0,84,0.00,,,0.00,WUHU216HW,2013-10-05 01:08:00,
2013-10-04 21:09:00,68.0,63.0,29.97,SW,225,0.0,0.0,84,0.00,,,0.00,WUHU216HW,2013-10-05 01:09:00,
2013-10-04 21:11:00,68.0,63.0,29.96,SW,225,0.0,0.0,84,0.00,,,0.00,WUHU216HW,2013-10-05 01:11:00,
2013-10-04 21:12:00,68.0,63.0,29.97,SW,225,0.0,0.0,84,0.00,,,0.00,WUHU216HW,2013-10-05 01:12:00,
2013-10-04 21:13:00,68.0,63.0,29.97,SW,225,0.0,0.0,84,0.00,,,0.00,WUHU216HW,2013-10-05 01:13:00,
2013-10-04 21:14:00,67.9,62.8,29.97,SW,225,0.0,0.0,84,0.00,,,0.00,WUHU216HW,2013-10-05 01:14:00,
2013-10-04 21:16:00,67.9,62.8,29.97,SW,225,0.0,0.0,84,0.00,,,0.00,WUHU216HW,2013-10-05 01:16:00,
2013-10-04 21:17:00,67.7,62.6,29.97,SW,225,0.0,0.0,84,0.00,,,0.00,WUHU216HW,2013-10-05 01:17:00,
2013-10-04 21:18:00,67.7,62.6,29.97,SW,225,0.0,0.0,84,0.00,,,0.00,WUHU216HW,2013-10-05 01:18:00,
2013-10-04 21:19:00,67.7,62.6,29.97,SW,225,0.0,0.0,84,0.00,,,0.00,WUHU216HW,2013-10-05 01:19:00,
2013-10-04 21:20:00,67.7,62.6,29.97,SW,225,0.0,0.0,84,0.00,,,0.00,WUHU216HW,2013-10-05 01:20:00,
2013-10-04 21:22:00,67.7,62.6,29.97,SW,225,0.0,0.0,84,0.00,,,0.00,WUHU216HW,2013-10-05 01:22:00,
2013-10-04 21:23:00,67.5,62.8,29.97,SW,225,0.0,0.0,85,0.00,,,0.00,WUHU216HW,2013-10-05 01:23:00,
2013-10-04 21:24:00,67.5,62.8,29.97,SW,225,0.0,0.0,85,0.00,,,0.00,WUHU216HW,2013-10-05 01:24:00,
2013-10-04 21:25:00,67.5,62.8,29.97,SW,225,0.0,0.0,85,0.00,,,0.00,WUHU216HW,2013-10-05 01:25:00,
2013-10-04 21:26:00,67.5,62.8,29.97,SW,225,0.0,0.0,85,0.00,,,0.00,WUHU216HW,2013-10-05 01:26:00,
2013-10-04 21:28:00,67.3,62.6,29.97,SW,225,0.0,0.0,85,0.00,,,0.00,WUHU216HW,2013-10-05 01:28:00,
2013-10-04 21:29:00,67.3,62.6,29.97,SW,225,0.0,0.0,85,0.00,,,0.00,WUHU216HW,2013-10-05 01:29:00,
2013-10-04 21:30:00,67.3,62.6,29.97,SW,225,0.0,0.0,85,0.00,,,0.00,WUHU216HW,2013-10-05 01:30:00,
2013-10-04 21:31:00,67.3,62.6,29.97,SW,225,0.0,0.0,85,0.00,,,0.00,WUHU216HW,2013-10-05 01:31:00,
2013-10-04 21:34:00,67.1,62.5,29.97,SW,225,0.0,0.0,85,0.00,,,0.00,WUHU216HW,2013-10-05 01:34:00,
2013-10-04 21:35:00,67.1,62.5,29.97,SW,225,0.0,0.0,85,0.00,,,0.00,WUHU216HW,2013-10-05 01:35:00,
2013-10-04 21:37:00,67.1,62.8,29.97,SW,225,0.0,0.0,86,0.00,,,0.00,WUHU216HW,2013-10-05 01:37:00,
2013-10-04 21:39:00,67.0,62.7,29.97,SW,225,0.0,0.0,86,0.00,,,0.00,WUHU216HW,2013-10-05 01:39:00,
2013-10-04 21:40:00,67.0,62.7,29.97,SW,225,0.0,0.0,86,0.00,,,0.00,WUHU216HW,2013-10-05 01:40:00,
2013-10-04 21:41:00,67.0,62.7,29.97,SW,225,0.0,0.0,86,0.00,,,0.00,WUHU216HW,2013-10-05 01:41:00,
2013-10-04 21:42:00,67.0,62.7,29.97,SW,225,0.0,0.0,86,0.00,,,0.00,WUHU216HW,2013-10-05 01:42:00,
2013-10-04 21:43:00,67.0,62.7,29.97,SW,225,0.0,0.0,86,0.00,,,0.00,WUHU216HW,2013-10-05 01:43:00,
2013-10-04 21:45:00,67.0,62.7,29.97,SW,225,0.0,0.0,86,0.00,,,0.00,WUHU216HW,2013-10-05 01:45:00,
2013-10-04 21:47:00,67.0,62.7,29.97,SW,225,0.0,0.0,86,0.00,,,0.00,WUHU216HW,2013-10-05 01:47:00,
2013-10-04 21:49:00,66.8,62.5,29.97,SW,225,0.0,0.0,86,0.00,,,0.00,WUHU216HW,2013-10-05 01:49:00,
2013-10-04 21:50:00,66.8,62.5,29.97,SW,225,0.0,0.0,86,0.00,,,0.00,WUHU216HW,2013-10-05 01:50:00,
2013-10-04 21:51:00,66.8,62.5,29.97,SW,225,0.0,0.0,86,0.00,,,0.00,WUHU216HW,2013-10-05 01:51:00,
2013-10-04 21:52:00,66.6,62.6,29.97,SW,225,0.0,0.0,87,0.00,,,0.00,WUHU216HW,2013-10-05 01:52:00,
2013-10-04 21:54:00,66.6,62.6,29.97,SW,225,0.0,0.0,87,0.00,,,0.00,WUHU216HW,2013-10-05 01:54:00,
2013-10-04 21:55:00,66.6,62.6,29.97,SW,225,0.0,0.0,87,0.00,,,0.00,WUHU216HW,2013-10-05 01:55:00,
2013-10-04 21:56:00,66.6,62.6,29.97,SW,225,0.0,0.0,87,0.00,,,0.00,WUHU216HW,2013-10-05 01:56:00,
2013-10-04 21:57:00,66.6,62.6,29.97,SW,225,0.0,0.0,87,0.00,,,0.00,WUHU216HW,2013-10-05 01:57:00,
2013-10-04 21:58:00,66.6,62.6,29.97,SW,225,0.0,0.0,87,0.00,,,0.00,WUHU216HW,2013-10-05 01:58:00,
2013-10-04 22:00:00,66.6,62.6,29.97,SW,225,0.0,0.0,87,0.00,,,0.00,WUHU216HW,2013-10-05 02:00:00,
2013-10-04 22:01:00,66.4,62.4,29.97,SW,225,0.0,0.0,87,0.00,,,0.00,WUHU216HW,2013-10-05 02:01:00,
2013-10-04 22:02:00,66.4,62.4,29.97,SE,135,0.0,0.0,87,0.00,,,0.00,WUHU216HW,2013-10-05 02:02:00,
2013-10-04 22:03:00,66.4,62.4,29.97,SE,135,0.0,0.0,87,0.00,,,0.00,WUHU216HW,2013-10-05 02:03:00,
2013-10-04 22:07:00,66.2,62.2,29.97,ESE,113,0.0,0.0,87,0.00,,,0.00,WUHU216HW,2013-10-05 02:07:00,
2013-10-04 22:08:00,66.2,62.2,29.97,ESE,113,0.0,0.0,87,0.00,,,0.00,WUHU216HW,2013-10-05 02:08:00,
2013-10-04 22:12:00,66.1,62.0,29.97,ESE,113,0.0,0.0,87,0.00,,,0.00,WUHU216HW,2013-10-05 02:12:00,
2013-10-04 22:13:00,66.1,62.0,29.97,ESE,113,0.0,0.0,87,0.00,,,0.00,WUHU216HW,2013-10-05 02:13:00,
2013-10-04 22:14:00,65.9,61.8,29.97,ESE,113,0.0,0.0,87,0.00,,,0.00,WUHU216HW,2013-10-05 02:14:00,
2013-10-04 22:17:00,65.9,62.2,29.98,ESE,113,0.0,0.0,88,0.00,,,0.00,WUHU216HW,2013-10-05 02:17:00,
2013-10-04 22:18:00,65.9,62.2,29.97,ESE,113,0.0,0.0,88,0.00,,,0.00,WUHU216HW,2013-10-05 02:18:00,
2013-10-04 22:19:00,65.9,62.2,29.97,SE,135,0.0,0.0,88,0.00,,,0.00,WUHU216HW,2013-10-05 02:19:00,
2013-10-04 22:21:00,65.9,62.2,29.97,WSW,248,0.4,0.4,88,0.00,,,0.00,WUHU216HW,2013-10-05 02:21:00,
2013-10-04 22:22:00,65.7,62.0,29.97,WSW,248,1.1,1.1,88,0.00,,,0.00,WUHU216HW,2013-10-05 02:22:00,
2013-10-04 22:23:00,65.7,62.0,29.97,WSW,248,1.1,1.1,88,0.00,,,0.00,WUHU216HW,2013-10-05 02:23:00,
2013-10-04 22:24:00,65.7,62.0,29.97,WSW,248,1.1,1.1,88,0.00,,,0.00,WUHU216HW,2013-10-05 02:24:00,
2013-10-04 22:27:00,65.7,62.0,29.98,WSW,248,0.2,1.1,88,0.00,,,0.00,WUHU216HW,2013-10-05 02:27:00,
2013-10-04 22:28:00,65.7,62.0,29.98,WSW,248,0.0,1.1,88,0.00,,,0.00,WUHU216HW,2013-10-05 02:28:00,
2013-10-04 22:29:00,65.7,62.0,29.98,WSW,248,0.0,1.1,88,0.00,,,0.00,WUHU216HW,2013-10-05 02:29:00,
2013-10-04 22:30:00,65.7,62.0,29.98,WSW,248,0.0,1.1,88,0.00,,,0.00,WUHU216HW,2013-10-05 02:30:00,
2013-10-04 22:33:00,65.5,61.8,29.98,WSW,248,0.0,1.1,88,0.00,,,0.00,WUHU216HW,2013-10-05 02:33:00,
2013-10-04 22:34:00,65.5,61.8,29.98,WSW,248,0.0,0.4,88,0.00,,,0.00,WUHU216HW,2013-10-05 02:34:00,
2013-10-04 22:37:00,65.5,61.8,29.98,WSW,248,0.0,0.0,88,0.00,,,0.00,WUHU216HW,2013-10-05 02:37:00,
2013-10-04 22:39:00,65.5,61.8,29.98,WSW,248,0.0,0.0,88,0.00,,,0.00,WUHU216HW,2013-10-05 02:39:00,
2013-10-04 22:40:00,65.5,61.8,29.98,WSW,248,0.0,0.0,88,0.00,,,0.00,WUHU216HW,2013-10-05 02:40:00,
2013-10-04 22:41:00,65.5,61.8,29.98,WSW,248,0.0,0.0,88,0.00,,,0.00,WUHU216HW,2013-10-05 02:41:00,
2013-10-04 22:43:00,65.3,61.8,29.98,WSW,248,0.0,0.0,88,0.00,,,0.00,WUHU216HW,2013-10-05 02:43:00,
2013-10-04 22:44:00,65.3,61.8,29.98,WSW,248,0.0,0.0,88,0.00,,,0.00,WUHU216HW,2013-10-05 02:44:00,
2013-10-04 22:45:00,65.3,61.8,29.98,WSW,248,0.0,0.0,88,0.00,,,0.00,WUHU216HW,2013-10-05 02:45:00,
2013-10-04 22:46:00,65.3,61.8,29.98,WSW,248,0.0,0.0,88,0.00,,,0.00,WUHU216HW,2013-10-05 02:46:00,
2013-10-04 22:50:00,65.2,61.2,29.98,WSW,248,0.0,0.0,87,0.00,,,0.00,WUHU216HW,2013-10-05 02:50:00,
2013-10-04 22:51:00,65.2,61.2,29.98,WSW,248,0.0,0.0,87,0.00,,,0.00,WUHU216HW,2013-10-05 02:51:00,
2013-10-04 22:53:00,65.0,61.0,29.98,WSW,248,0.0,0.0,87,0.00,,,0.00,WUHU216HW,2013-10-05 02:53:00,
2013-10-04 22:55:00,65.0,61.0,29.98,WSW,248,0.0,0.0,87,0.00,,,0.00,WUHU216HW,2013-10-05 02:55:00,
2013-10-04 22:56:00,65.0,61.0,29.98,WSW,248,0.0,0.0,87,0.00,,,0.00,WUHU216HW,2013-10-05 02:56:00,
2013-10-04 22:57:00,65.0,61.0,29.98,WSW,248,0.0,0.0,87,0.00,,,0.00,WUHU216HW,2013-10-05 02:57:00,
2013-10-04 22:59:00,64.8,60.8,29.98,WSW,248,0.0,0.0,87,0.00,,,0.00,WUHU216HW,2013-10-05 02:59:00,
2013-10-04 23:01:00,64.8,60.8,29.98,WSW,248,0.0,0.0,87,0.00,,,0.00,WUHU216HW,2013-10-05 03:01:00,
2013-10-04 23:02:00,64.8,60.8,29.98,WSW,248,0.0,0.0,87,0.00,,,0.00,WUHU216HW,2013-10-05 03:02:00,
2013-10-04 23:04:00,64.8,61.2,29.98,WSW,248,0.0,0.0,88,0.00,,,0.00,WUHU216HW,2013-10-05 03:04:00,
2013-10-04 23:05:00,64.8,61.2,29.97,WSW,248,0.0,0.0,88,0.00,,,0.00,WUHU216HW,2013-10-05 03:05:00,
2013-10-04 23:07:00,64.8,61.2,29.98,WSW,248,0.0,0.0,88,0.00,,,0.00,WUHU216HW,2013-10-05 03:07:00,
2013-10-04 23:08:00,64.8,61.2,29.98,WSW,248,0.0,0.0,88,0.00,,,0.00,WUHU216HW,2013-10-05 03:08:00,
2013-10-04 23:10:00,64.8,61.2,29.98,WSW,248,0.0,0.0,88,0.00,,,0.00,WUHU216HW,2013-10-05 03:10:00,
2013-10-04 23:12:00,64.8,61.2,29.98,WSW,248,0.0,0.0,88,0.00,,,0.00,WUHU216HW,2013-10-05 03:12:00,
2013-10-04 23:14:00,64.8,61.2,29.98,WSW,248,0.0,0.0,88,0.00,,,0.00,WUHU216HW,2013-10-05 03:14:00,
2013-10-04 23:15:00,64.8,61.2,29.98,WSW,248,0.0,0.0,88,0.00,,,0.00,WUHU216HW,2013-10-05 03:15:00,
2013-10-04 23:16:00,64.8,61.2,29.98,WSW,248,0.0,0.0,88,0.00,,,0.00,WUHU216HW,2013-10-05 03:16:00,
2013-10-04 23:18:00,64.8,61.2,29.98,WSW,248,0.0,0.0,88,0.00,,,0.00,WUHU216HW,2013-10-05 03:18:00,
2013-10-04 23:20:00,64.6,61.0,29.98,WSW,248,0.0,0.0,88,0.00,,,0.00,WUHU216HW,2013-10-05 03:20:00,
2013-10-04 23:21:00,64.6,61.0,29.98,WSW,248,0.0,0.0,88,0.00,,,0.00,WUHU216HW,2013-10-05 03:21:00,
2013-10-04 23:22:00,64.6,61.0,29.98,WSW,248,0.0,0.0,88,0.00,,,0.00,WUHU216HW,2013-10-05 03:22:00,
2013-10-04 23:23:00,64.6,61.0,29.98,WSW,248,0.0,0.0,88,0.00,,,0.00,WUHU216HW,2013-10-05 03:23:00,
2013-10-04 23:26:00,64.4,60.8,29.98,WSW,248,0.0,0.0,88,0.00,,,0.00,WUHU216HW,2013-10-05 03:26:00,
2013-10-04 23:27:00,64.4,60.8,29.98,WSW,248,0.0,0.0,88,0.00,,,0.00,WUHU216HW,2013-10-05 03:27:00,
2013-10-04 23:28:00,64.4,60.8,29.98,WSW,248,0.0,0.0,88,0.00,,,0.00,WUHU216HW,2013-10-05 03:28:00,
2013-10-04 23:31:00,64.3,60.7,29.97,WSW,248,0.0,0.0,88,0.00,,,0.00,WUHU216HW,2013-10-05 03:31:00,
2013-10-04 23:32:00,64.3,60.7,29.97,WSW,248,0.0,0.0,88,0.00,,,0.00,WUHU216HW,2013-10-05 03:32:00,
2013-10-04 23:33:00,64.3,60.7,29.98,WSW,248,0.0,0.0,88,0.00,,,0.00,WUHU216HW,2013-10-05 03:33:00,
2013-10-04 23:36:00,64.3,61.0,29.98,WSW,248,0.0,0.0,89,0.00,,,0.00,WUHU216HW,2013-10-05 03:36:00,
2013-10-04 23:37:00,64.3,61.0,29.97,WSW,248,0.0,0.0,89,0.00,,,0.00,WUHU216HW,2013-10-05 03:37:00,
2013-10-04 23:38:00,64.3,61.0,29.97,WSW,248,0.0,0.0,89,0.00,,,0.00,WUHU216HW,2013-10-05 03:38:00,
2013-10-04 23:39:00,64.3,61.0,29.97,WSW,248,0.0,0.0,89,0.00,,,0.00,WUHU216HW,2013-10-05 03:39:00,
2013-10-04 23:41:00,64.3,61.0,29.98,WSW,248,0.0,0.0,89,0.00,,,0.00,WUHU216HW,2013-10-05 03:41:00,
2013-10-04 23:42:00,64.1,60.8,29.97,WSW,248,0.0,0.0,89,0.00,,,0.00,WUHU216HW,2013-10-05 03:42:00,
2013-10-04 23:43:00,64.3,61.0,29.97,WSW,248,0.0,0.0,89,0.00,,,0.00,WUHU216HW,2013-10-05 03:43:00,
2013-10-04 23:44:00,64.1,60.8,29.98,WSW,248,0.0,0.0,89,0.00,,,0.00,WUHU216HW,2013-10-05 03:44:00,
2013-10-04 23:45:00,64.1,60.8,29.97,WSW,248,0.0,0.0,89,0.00,,,0.00,WUHU216HW,2013-10-05 03:45:00,
2013-10-04 23:46:00,64.1,60.8,29.98,WSW,248,0.0,0.0,89,0.00,,,0.00,WUHU216HW,2013-10-05 03:46:00,
2013-10-04 23:47:00,64.3,61.0,29.98,WSW,248,0.0,0.0,89,0.00,,,0.00,WUHU216HW,2013-10-05 03:47:00,
2013-10-04 23:48:00,64.1,60.8,29.98,WSW,248,0.0,0.0,89,0.00,,,0.00,WUHU216HW,2013-10-05 03:48:00,
2013-10-04 23:50:00,64.1,60.8,29.97,WSW,248,0.0,0.0,89,0.00,,,0.00,WUHU216HW,2013-10-05 03:50:00,
2013-10-04 23:52:00,64.1,60.8,29.97,WSW,248,0.0,0.0,89,0.00,,,0.00,WUHU216HW,2013-10-05 03:52:00,
2013-10-04 23:54:00,63.9,60.7,29.98,WSW,248,0.0,0.0,89,0.00,,,0.00,WUHU216HW,2013-10-05 03:54:00,
2013-10-04 23:55:00,63.9,60.7,29.98,WSW,248,0.0,0.0,89,0.00,,,0.00,WUHU216HW,2013-10-05 03:55:00,
2013-10-04 23:58:00,63.9,60.7,29.98,WSW,248,0.0,0.0,89,0.00,,,0.00,WUHU216HW,2013-10-05 03:58:00,